Home > Products > Valid Products > OSO

000
SXUS55 KMSO 310823
OSOMSO
MONTANA AWOS SUMMARY
NATIONAL WEATHER SERVICE MISSOULA MT
223 AM MDT SUN AUG 31 2014

Montana AWOS Reports

LAUREL      |K6S8 310815Z AUTO 24004KT 40SM 14/07 A2982 RMK AO1 T01440072
ROUNDUP     |KRPX 310815Z AUTO 00000KT 40SM 13/09 A2972 RMK AO1 T01280089
MALTA       |KM75 310815Z AUTO 00000KT 40SM 13/10 A2971 RMK AO1 T01280100






000
SXUS55 KMSO 310813
OSOMSO
MONTANA AWOS SUMMARY
NATIONAL WEATHER SERVICE MISSOULA MT
213 AM MDT SUN AUG 31 2014

Montana AWOS Reports

PLAINS      |KS34 310755Z AUTO 00000KT 7SM 14/08 A2989 RMK AO1 T01390083






000
SXUS55 KMSO 310803
OSOMSO
MONTANA AWOS SUMMARY
NATIONAL WEATHER SERVICE MISSOULA MT
203 AM MDT SUN AUG 31 2014

Montana AWOS Reports

MALTA       |KM75 310755Z AUTO 00000KT 40SM 13/10 A2971 RMK AO1 T01280100
LAUREL      |K6S8 310755Z AUTO 25004KT 40SM 14/07 A2982 RMK AO1 T01440072
ROUNDUP     |KRPX 310755Z AUTO 00000KT 40SM 13/08 A2973 RMK AO1 T01280083






000
SXUS55 KMSO 310753
OSOMSO
MONTANA AWOS SUMMARY
NATIONAL WEATHER SERVICE MISSOULA MT
153 AM MDT SUN AUG 31 2014

Montana AWOS Reports

LAUREL      |K6S8 310735Z AUTO 28004KT 40SM 12/07 A2982 RMK AO1 T01220072
ROUNDUP     |KRPX 310735Z AUTO 00000KT 40SM 13/09 A2973 RMK AO1 T01280089






000
SXUS55 KMSO 310743
OSOMSO
MONTANA AWOS SUMMARY
NATIONAL WEATHER SERVICE MISSOULA MT
142 AM MDT SUN AUG 31 2014

Montana AWOS Reports

MALTA       |KM75 310735Z AUTO 00000KT 40SM 13/10 A2971 RMK AO1 T01280100






000
SXUS55 KMSO 310723
OSOMSO
MONTANA AWOS SUMMARY
NATIONAL WEATHER SERVICE MISSOULA MT
123 AM MDT SUN AUG 31 2014

Montana AWOS Reports

LAUREL      |K6S8 310715Z AUTO 18004KT 40SM 13/08 A2982 RMK AO1 T01280078
MALTA       |KM75 310715Z AUTO 00000KT 40SM 14/11 A2970 RMK AO1 T01390106
ROUNDUP     |KRPX 310715Z AUTO 00000KT 40SM 13/08 A2973 RMK AO1 T01280083






000
SXUS55 KMSO 310713
OSOMSO
MONTANA AWOS SUMMARY
NATIONAL WEATHER SERVICE MISSOULA MT
113 AM MDT SUN AUG 31 2014

Montana AWOS Reports

LAUREL      |K6S8 310655Z AUTO 00000KT 25SM 12/07 A2983 RMK AO1 T01220072
ROUNDUP     |KRPX 310655Z AUTO 00000KT 40SM 13/08 A2973 RMK AO1 T01330083
SCOBEY      |K9S2 310655Z AUTO 00000KT 25SM 14/11 A2972 RMK AO1 T01390106
PLAINS      |KS34 310655Z AUTO 00000KT 40SM 14/06 A2986 RMK AO1 T01390061
MALTA       |KM75 310655Z AUTO 00000KT 40SM 13/10 A2970 RMK AO1 T01330100






000
SXUS55 KMSO 310653
OSOMSO
MONTANA AWOS SUMMARY
NATIONAL WEATHER SERVICE MISSOULA MT
1252 AM MDT SUN AUG 31 2014

Montana AWOS Reports

LAUREL      |K6S8 310635Z AUTO 00000KT 25SM 12/07 A2982 RMK AO1 T01220067
MALTA       |KM75 310635Z AUTO 00000KT 40SM 14/11 A2971 RMK AO1 T01390106






000
SXUS55 KMSO 310643
OSOMSO
MONTANA AWOS SUMMARY
NATIONAL WEATHER SERVICE MISSOULA MT
1243 AM MDT SUN AUG 31 2014

Montana AWOS Reports

ROUNDUP     |KRPX 310635Z AUTO 00000KT 40SM 13/08 A2972 RMK AO1 T01280083






000
SXUS55 KMSO 310623
OSOMSO
MONTANA AWOS SUMMARY
NATIONAL WEATHER SERVICE MISSOULA MT
1223 AM MDT SUN AUG 31 2014

Montana AWOS Reports

LAUREL      |K6S8 310615Z AUTO 00000KT 25SM 13/07 A2981 RMK AO1 T01280072
ROUNDUP     |KRPX 310615Z AUTO 00000KT 40SM 13/08 A2972 RMK AO1 T01280083
MALTA       |KM75 310615Z AUTO 00000KT 40SM 14/11 A2971 RMK AO1 T01390106






000
SXUS55 KMSO 310614
OSOMSO
MONTANA AWOS SUMMARY
NATIONAL WEATHER SERVICE MISSOULA MT
1213 AM MDT SUN AUG 31 2014

Montana AWOS Reports

SCOBEY      |K9S2 310555Z AUTO 00000KT 25SM 13/10 A2973 RMK AO1 T01330100






000
SXUS55 KMSO 310553
OSOMSO
MONTANA AWOS SUMMARY
NATIONAL WEATHER SERVICE MISSOULA MT
1152 PM MDT SAT AUG 30 2014

Montana AWOS Reports

LAUREL      |K6S8 310535Z AUTO 00000KT 25SM 13/07 A2982 RMK AO1 T01280067
ROUNDUP     |KRPX 310535Z AUTO 00000KT 40SM 14/08 A2972 RMK AO1 T01390078
MALTA       |KM75 310535Z AUTO 00000KT 40SM 15/11 A2970 RMK AO1 T01500106






000
SXUS55 KMSO 310534
OSOMSO
MONTANA AWOS SUMMARY
NATIONAL WEATHER SERVICE MISSOULA MT
1133 PM MDT SAT AUG 30 2014

Montana AWOS Reports

SCOBEY      |K9S2 310455Z AUTO 00000KT 25SM 13/09 A2974 RMK AO1 T01280094
PLAINS      |KS34 310455Z AUTO 00000KT 40SM 15/07 A2986 RMK AO1 T01500067






000
SXUS55 KMSO 310523
OSOMSO
MONTANA AWOS SUMMARY
NATIONAL WEATHER SERVICE MISSOULA MT
1123 PM MDT SAT AUG 30 2014

Montana AWOS Reports

LAUREL      |K6S8 310515Z AUTO 00000KT 25SM 13/07 A2982 RMK AO1 T01330072
ROUNDUP     |KRPX 310515Z AUTO 00000KT 40SM 14/08 A2972 RMK AO1 T01390078
MALTA       |KM75 310515Z AUTO 00000KT 40SM 16/11 A2970 RMK AO1 T01560111






000
SXUS55 KMSO 310513
OSOMSO
MONTANA AWOS SUMMARY
NATIONAL WEATHER SERVICE MISSOULA MT
1112 PM MDT SAT AUG 30 2014

Montana AWOS Reports

MALTA       |KM75 310455Z AUTO 00000KT 40SM 16/11 A2970 RMK AO1 T01560106






000
SXUS55 KMSO 310503
OSOMSO
MONTANA AWOS SUMMARY
NATIONAL WEATHER SERVICE MISSOULA MT
1103 PM MDT SAT AUG 30 2014

Montana AWOS Reports

LAUREL      |K6S8 310455Z AUTO 00000KT 25SM 14/07 A2983 RMK AO1 T01390072
ROUNDUP     |KRPX 310455Z AUTO 00000KT 40SM 14/08 A2972 RMK AO1 T01390078
MALTA       |KM75 310455Z AUTO 00000KT 40SM 16/11 A2970 RMK AO1 T01560106






000
SXUS55 KMSO 310443
OSOMSO
MONTANA AWOS SUMMARY
NATIONAL WEATHER SERVICE MISSOULA MT
1043 PM MDT SAT AUG 30 2014

Montana AWOS Reports

LAUREL      |K6S8 310435Z AUTO 00000KT 25SM 14/07 A2983 RMK AO1 T01440072
ROUNDUP     |KRPX 310435Z AUTO 20008KT 40SM 14/08 A2971 RMK AO1 T01390083
MALTA       |KM75 310435Z AUTO 33008KT 40SM 16/11 A2969 RMK AO1 T01610111






000
SXUS55 KMSO 310423
OSOMSO
MONTANA AWOS SUMMARY
NATIONAL WEATHER SERVICE MISSOULA MT
1022 PM MDT SAT AUG 30 2014

Montana AWOS Reports

LAUREL      |K6S8 310415Z AUTO 00000KT 40SM 14/07 A2983 RMK AO1 T01440072
ROUNDUP     |KRPX 310415Z AUTO 19006KT 40SM 14/09 A2971 RMK AO1 T01390089
MALTA       |KM75 310415Z AUTO 33012KT 40SM 17/11 A2968 RMK AO1 T01670111






000
SXUS55 KMSO 310413
OSOMSO
MONTANA AWOS SUMMARY
NATIONAL WEATHER SERVICE MISSOULA MT
1013 PM MDT SAT AUG 30 2014

Montana AWOS Reports

LAUREL      |K6S8 310355Z AUTO 00000KT 40SM 15/07 A2983 RMK AO1 T01500067
SCOBEY      |K9S2 310355Z AUTO 00000KT 2SM 13/09 A2972 RMK AO1 T01280089






000
SXUS55 KMSO 310403
OSOMSO
MONTANA AWOS SUMMARY
NATIONAL WEATHER SERVICE MISSOULA MT
1003 PM MDT SAT AUG 30 2014

Montana AWOS Reports

ROUNDUP     |KRPX 310355Z AUTO 00000KT 40SM 14/09 A2971 RMK AO1 T01440094
MALTA       |KM75 310355Z AUTO 31009G13KT 40SM 17/11 A2969 RMK AO1 T01670111






000
SXUS55 KMSO 310343
OSOMSO
MONTANA AWOS SUMMARY
NATIONAL WEATHER SERVICE MISSOULA MT
943 PM MDT SAT AUG 30 2014

Montana AWOS Reports

LAUREL      |K6S8 310335Z AUTO 00000KT 25SM 15/07 A2984 RMK AO1 T01500072
ROUNDUP     |KRPX 310335Z AUTO 00000KT 40SM 15/09 A2972 RMK AO1 T01500094
MALTA       |KM75 310335Z AUTO 28008KT 40SM 18/12 A2969 RMK AO1 T01780117






000
SXUS55 KMSO 310323
OSOMSO
MONTANA AWOS SUMMARY
NATIONAL WEATHER SERVICE MISSOULA MT
923 PM MDT SAT AUG 30 2014

Montana AWOS Reports

LAUREL      |K6S8 310315Z AUTO 27005KT 25SM 16/07 A2983 RMK AO1 T01560072
ROUNDUP     |KRPX 310315Z AUTO 20009KT 40SM 15/09 A2972 RMK AO1 T01500089
MALTA       |KM75 310315Z AUTO 27004KT 40SM 19/12 A2970 RMK AO1 T01890117






000
SXUS55 KMSO 310303
OSOMSO
MONTANA AWOS SUMMARY
NATIONAL WEATHER SERVICE MISSOULA MT
903 PM MDT SAT AUG 30 2014

Montana AWOS Reports

LAUREL      |K6S8 310255Z AUTO 00000KT 25SM 15/08 A2983 RMK AO1 T01500083
ROUNDUP     |KRPX 310255Z AUTO 19006KT 40SM 16/09 A2972 RMK AO1 T01560094






000
SXUS55 KMSO 310243
OSOMSO
MONTANA AWOS SUMMARY
NATIONAL WEATHER SERVICE MISSOULA MT
843 PM MDT SAT AUG 30 2014

Montana AWOS Reports

LAUREL      |K6S8 310235Z AUTO 00000KT 25SM 16/08 A2983 RMK AO1 T01560078
ROUNDUP     |KRPX 310235Z AUTO 19007KT 40SM 16/09 A2972 RMK AO1 T01610094
MALTA       |KM75 310235Z AUTO 00000KT 40SM 19/12 A2969 RMK AO1 T01940122






000
SXUS55 KMSO 310223
OSOMSO
MONTANA AWOS SUMMARY
NATIONAL WEATHER SERVICE MISSOULA MT
823 PM MDT SAT AUG 30 2014

Montana AWOS Reports

ROUNDUP     |KRPX 310215Z AUTO 20005KT 40SM 17/09 A2973 RMK AO1 T01670094
MALTA       |KM75 310215Z AUTO 00000KT 40SM 21/12 A2968 RMK AO1 T02060122






000
SXUS55 KMSO 310213
OSOMSO
MONTANA AWOS SUMMARY
NATIONAL WEATHER SERVICE MISSOULA MT
813 PM MDT SAT AUG 30 2014

Montana AWOS Reports

SCOBEY      |K9S2 310155Z AUTO 00000KT 25SM 15/11 A2972 RMK AO1 T01500106






000
SXUS55 KMSO 310203
OSOMSO
MONTANA AWOS SUMMARY
NATIONAL WEATHER SERVICE MISSOULA MT
802 PM MDT SAT AUG 30 2014

Montana AWOS Reports

LAUREL      |K6S8 310155Z AUTO 00000KT 25SM 17/08 A2983 RMK AO1 T01670083
ROUNDUP     |KRPX 310155Z AUTO 00000KT 40SM 17/09 A2974 RMK AO1 T01720094
MALTA       |KM75 310155Z AUTO 00000KT 40SM 21/13 A2967 RMK AO1 T02110133
PLAINS      |KS34 310155Z AUTO 21005KT 40SM 22/04 A2984 RMK AO1 T02170044






000
SXUS55 KMSO 310143
OSOMSO
MONTANA AWOS SUMMARY
NATIONAL WEATHER SERVICE MISSOULA MT
743 PM MDT SAT AUG 30 2014

Montana AWOS Reports

LAUREL      |K6S8 310135Z AUTO 00000KT 40SM 17/08 A2984 RMK AO1 T01720083
ROUNDUP     |KRPX 310135Z AUTO 24004KT 40SM 18/09 A2974 RMK AO1 T01780094






000
SXUS55 KMSO 310133
OSOMSO
MONTANA AWOS SUMMARY
NATIONAL WEATHER SERVICE MISSOULA MT
733 PM MDT SAT AUG 30 2014

Montana AWOS Reports

MALTA       |KM75 310115Z AUTO 00000KT 40SM 21/13 A2967 RMK AO1 T02110133






000
SXUS55 KMSO 310123
OSOMSO
MONTANA AWOS SUMMARY
NATIONAL WEATHER SERVICE MISSOULA MT
723 PM MDT SAT AUG 30 2014

Montana AWOS Reports

LAUREL      |K6S8 310115Z AUTO 00000KT 25SM 17/08 A2984 RMK AO1 T01720083
ROUNDUP     |KRPX 310115Z AUTO 24007KT 40SM 18/09 A2973 RMK AO1 T01830094






000
SXUS55 KMSO 310113
OSOMSO
MONTANA AWOS SUMMARY
NATIONAL WEATHER SERVICE MISSOULA MT
713 PM MDT SAT AUG 30 2014

Montana AWOS Reports

MALTA       |KM75 310055Z AUTO 00000KT 40SM 21/13 A2967 RMK AO1 T02110128






000
SXUS55 KMSO 310104
OSOMSO
MONTANA AWOS SUMMARY
NATIONAL WEATHER SERVICE MISSOULA MT
703 PM MDT SAT AUG 30 2014

Montana AWOS Reports

LAUREL      |K6S8 310055Z AUTO 27006KT 25SM 18/08 A2983 RMK AO1 T01780083
ROUNDUP     |KRPX 310055Z AUTO 00000KT 40SM 19/11 A2973 RMK AO1 T01890106
MALTA       |KM75 310055Z AUTO 00000KT 40SM 21/13 A2967 RMK AO1 T02110128
SCOBEY      |K9S2 310055Z AUTO 15004KT 40SM 17/12 A2972 RMK AO1 T01670117
PLAINS      |KS34 310055Z AUTO 00000KT 40SM 23/03 A2984 RMK AO1 T02280033






000
SXUS55 KMSO 310043
OSOMSO
MONTANA AWOS SUMMARY
NATIONAL WEATHER SERVICE MISSOULA MT
643 PM MDT SAT AUG 30 2014

Montana AWOS Reports

LAUREL      |K6S8 310035Z AUTO 29005KT 15SM 17/09 A2983 RMK AO1 T01720089
ROUNDUP     |KRPX 310035Z AUTO 23009KT 40SM 19/09 A2972 RMK AO1 T01890094






000
SXUS55 KMSO 310023
OSOMSO
MONTANA AWOS SUMMARY
NATIONAL WEATHER SERVICE MISSOULA MT
623 PM MDT SAT AUG 30 2014

Montana AWOS Reports

LAUREL      |K6S8 310015Z AUTO 27006KT 15SM 18/09 A2984 RMK AO1 T01830089
ROUNDUP     |KRPX 310015Z AUTO 22009G16KT 40SM 19/10 A2973 RMK AO1 T01940100






000
SXUS55 KMSO 310014
OSOMSO
MONTANA AWOS SUMMARY
NATIONAL WEATHER SERVICE MISSOULA MT
613 PM MDT SAT AUG 30 2014

Montana AWOS Reports

PLAINS      |KS34 302355Z AUTO VRB04KT 40SM 23/03 A2984 RMK AO1 T02280033






000
SXUS55 KMSO 310004
OSOMSO
MONTANA AWOS SUMMARY
NATIONAL WEATHER SERVICE MISSOULA MT
603 PM MDT SAT AUG 30 2014

Montana AWOS Reports

LAUREL      |K6S8 302355Z AUTO 00000KT 40SM 18/11 A2983 RMK AO1 T01830111
ROUNDUP     |KRPX 302355Z AUTO 24013G18KT 40SM 20/11 A2973 RMK AO1 T02000106
MALTA       |KM75 302355Z AUTO 00000KT 40SM 23/13 A2966 RMK AO1 T02330128






000
SXUS55 KMSO 302343
OSOMSO
MONTANA AWOS SUMMARY
NATIONAL WEATHER SERVICE MISSOULA MT
543 PM MDT SAT AUG 30 2014

Montana AWOS Reports

LAUREL      |K6S8 302335Z AUTO 00000KT 40SM 18/11 A2984 RMK AO1 T01830111
ROUNDUP     |KRPX 302335Z AUTO 24016G23KT 40SM 22/11 A2972 RMK AO1 T02170106






000
SXUS55 KMSO 302323
OSOMSO
MONTANA AWOS SUMMARY
NATIONAL WEATHER SERVICE MISSOULA MT
523 PM MDT SAT AUG 30 2014

Montana AWOS Reports

LAUREL      |K6S8 302315Z AUTO 40SM 18/11 A2984 RMK AO1 T01830106
ROUNDUP     |KRPX 302315Z AUTO 00000KT 40SM 22/11 A2972 RMK AO1 T02170106






000
SXUS55 KMSO 302313
OSOMSO
MONTANA AWOS SUMMARY
NATIONAL WEATHER SERVICE MISSOULA MT
513 PM MDT SAT AUG 30 2014

Montana AWOS Reports

SCOBEY      |K9S2 302255Z AUTO 12005KT 40SM 17/12 A2972 RMK AO1 T01670122
MALTA       |KM75 302255Z AUTO 00000KT 40SM 24/11 A2967 RMK AO1 T02390106
PLAINS      |KS34 302155Z AUTO 26006KT 40SM 24/04 A2985 RMK AO1 T02440039
PLAINS      |KS34 302255Z AUTO 26006KT 40SM 24/03 A2984 RMK AO1 T02390033






000
SXUS55 KMSO 302303
OSOMSO
MONTANA AWOS SUMMARY
NATIONAL WEATHER SERVICE MISSOULA MT
503 PM MDT SAT AUG 30 2014

Montana AWOS Reports

LAUREL      |K6S8 302255Z AUTO 40SM 18/10 A2982 RMK AO1 T01830100
ROUNDUP     |KRPX 302255Z AUTO 17004KT 40SM 21/11 A2972 RMK AO1 T02110111






000
SXUS55 KMSO 302243
OSOMSO
MONTANA AWOS SUMMARY
NATIONAL WEATHER SERVICE MISSOULA MT
443 PM MDT SAT AUG 30 2014

Montana AWOS Reports

LAUREL      |K6S8 302235Z AUTO 00000KT 40SM 18/10 A2982 RMK AO1 T01830100
ROUNDUP     |KRPX 302235Z AUTO 10004KT 40SM 21/11 A2972 RMK AO1 T02060111
MALTA       |KM75 302235Z AUTO 00000KT 40SM 24/09 A2967 RMK AO1 T02440094






000
SXUS55 KMSO 302223
OSOMSO
MONTANA AWOS SUMMARY
NATIONAL WEATHER SERVICE MISSOULA MT
423 PM MDT SAT AUG 30 2014

Montana AWOS Reports

LAUREL      |K6S8 302215Z AUTO 00000KT 40SM 19/11 A2982 RMK AO1 T01890111
ROUNDUP     |KRPX 302215Z AUTO 00000KT 40SM 21/11 A2973 RMK AO1 T02060111
MALTA       |KM75 302215Z AUTO 22004KT 40SM 24/09 A2968 RMK AO1 T02390094






000
SXUS55 KMSO 302213
OSOMSO
MONTANA AWOS SUMMARY
NATIONAL WEATHER SERVICE MISSOULA MT
413 PM MDT SAT AUG 30 2014

Montana AWOS Reports

SCOBEY      |K9S2 302155Z AUTO 14005KT 25SM 16/12 A2974 RMK AO1 T01610122






000
SXUS55 KMSO 302203
OSOMSO
MONTANA AWOS SUMMARY
NATIONAL WEATHER SERVICE MISSOULA MT
403 PM MDT SAT AUG 30 2014

Montana AWOS Reports

LAUREL      |K6S8 302155Z AUTO 21005KT 40SM 18/11 A2983 RMK AO1 T01830106
ROUNDUP     |KRPX 302155Z AUTO 00000KT 40SM 20/11 A2973 RMK AO1 T02000111
MALTA       |KM75 302155Z AUTO 22005KT 40SM 23/11 A2968 RMK AO1 T02330111






000
SXUS55 KMSO 302143
OSOMSO
MONTANA AWOS SUMMARY
NATIONAL WEATHER SERVICE MISSOULA MT
343 PM MDT SAT AUG 30 2014

Montana AWOS Reports

LAUREL      |K6S8 302135Z AUTO 17004KT 40SM 18/11 A2982 RMK AO1 T01830111
ROUNDUP     |KRPX 302135Z AUTO 00000KT 40SM 20/11 A2973 RMK AO1 T02000106






000
SXUS55 KMSO 302123
OSOMSO
MONTANA AWOS SUMMARY
NATIONAL WEATHER SERVICE MISSOULA MT
323 PM MDT SAT AUG 30 2014

Montana AWOS Reports

SCOBEY      |K9S2 302055Z AUTO 00000KT 5SM 16/12 A2975 RMK AO1 T01560117
LAUREL      |K6S8 302115Z AUTO 00000KT 40SM 18/11 A2983 RMK AO1 T01780111
ROUNDUP     |KRPX 302115Z AUTO 00000KT 40SM 20/11 A2974 RMK AO1 T02000106
MALTA       |KM75 301955Z AUTO 21006KT 40SM 22/12 A2970 RMK AO1 T02170122






000
SXUS55 KMSO 302104
OSOMSO
MONTANA AWOS SUMMARY
NATIONAL WEATHER SERVICE MISSOULA MT
303 PM MDT SAT AUG 30 2014

Montana AWOS Reports

LAUREL      |K6S8 302055Z AUTO 20004KT 40SM 18/11 A2984 RMK AO1 T01780111
ROUNDUP     |KRPX 302055Z AUTO 00000KT 40SM 20/11 A2974 RMK AO1 T02000106
MALTA       |KM75 302055Z AUTO 22006KT 40SM 23/11 A2969 RMK AO1 T02330111
PLAINS      |KS34 302055Z AUTO 31005KT 40SM 24/04 A2986 RMK AO1 T02390039






000
SXUS55 KMSO 302053
OSOMSO
MONTANA AWOS SUMMARY
NATIONAL WEATHER SERVICE MISSOULA MT
253 PM MDT SAT AUG 30 2014

Montana AWOS Reports

LAUREL      |K6S8 302035Z AUTO 21006KT 15SM 17/11 A2985 RMK AO1 T01720111
ROUNDUP     |KRPX 302035Z AUTO 00000KT 40SM 20/11 A2974 RMK AO1 T02000106
MALTA       |KM75 302035Z AUTO 21008KT 40SM 23/11 A2969 RMK AO1 T02280111






000
SXUS55 KMSO 302023
OSOMSO
MONTANA AWOS SUMMARY
NATIONAL WEATHER SERVICE MISSOULA MT
223 PM MDT SAT AUG 30 2014

Montana AWOS Reports

LAUREL      |K6S8 302015Z AUTO 21005KT 25SM 18/11 A2985 RMK AO1 T01780111
ROUNDUP     |KRPX 302015Z AUTO 00000KT 40SM 20/11 A2975 RMK AO1 T02000106






000
SXUS55 KMSO 302003
OSOMSO
MONTANA AWOS SUMMARY
NATIONAL WEATHER SERVICE MISSOULA MT
203 PM MDT SAT AUG 30 2014

Montana AWOS Reports

LAUREL      |K6S8 301955Z AUTO 21004KT 40SM 18/10 A2985 RMK AO1 T01830100
ROUNDUP     |KRPX 301955Z AUTO 00000KT 40SM 20/10 A2975 RMK AO1 T02000100
PLAINS      |KS34 301955Z AUTO 24011G21KT 40SM 24/04 A2986 RMK AO1 T02390039
SCOBEY      |K9S2 301955Z AUTO 00000KT 5SM 15/11 A2975 RMK AO1 T01500111






000
SXUS55 KMSO 301943
OSOMSO
MONTANA AWOS SUMMARY
NATIONAL WEATHER SERVICE MISSOULA MT
143 PM MDT SAT AUG 30 2014

Montana AWOS Reports

LAUREL      |K6S8 301935Z AUTO 00000KT 40SM 18/09 A2984 RMK AO1 T01830094
ROUNDUP     |KRPX 301935Z AUTO 00000KT 40SM 20/11 A2975 RMK AO1 T02000106
MALTA       |KM75 301935Z AUTO 21006KT 40SM 21/13 A2970 RMK AO1 T02110128






000
SXUS55 KMSO 301924
OSOMSO
MONTANA AWOS SUMMARY
NATIONAL WEATHER SERVICE MISSOULA MT
123 PM MDT SAT AUG 30 2014

Montana AWOS Reports

LAUREL      |K6S8 301915Z AUTO 00000KT 40SM 18/09 A2985 RMK AO1 T01830089
ROUNDUP     |KRPX 301915Z AUTO 00000KT 40SM 19/11 A2975 RMK AO1 T01940106






000
SXUS55 KMSO 301903
OSOMSO
MONTANA AWOS SUMMARY
NATIONAL WEATHER SERVICE MISSOULA MT
103 PM MDT SAT AUG 30 2014

Montana AWOS Reports

LAUREL      |K6S8 301855Z AUTO 00000KT 40SM 18/09 A2985 RMK AO1 T01830094
ROUNDUP     |KRPX 301855Z AUTO 00000KT 40SM 19/11 A2975 RMK AO1 T01940106
MALTA       |KM75 301855Z AUTO 00000KT 40SM 19/12 A2970 RMK AO1 T01940122






000
SXUS55 KMSO 301843
OSOMSO
MONTANA AWOS SUMMARY
NATIONAL WEATHER SERVICE MISSOULA MT
1243 PM MDT SAT AUG 30 2014

Montana AWOS Reports

LAUREL      |K6S8 301835Z AUTO 00000KT 40SM 19/09 A2985 RMK AO1 T01890094
ROUNDUP     |KRPX 301835Z AUTO 04004KT 40SM 19/11 A2976 RMK AO1 T01890106
MALTA       |KM75 301835Z AUTO 00000KT 40SM 19/13 A2971 RMK AO1 T01940128






000
SXUS55 KMSO 301823
OSOMSO
MONTANA AWOS SUMMARY
NATIONAL WEATHER SERVICE MISSOULA MT
1223 PM MDT SAT AUG 30 2014

Montana AWOS Reports

LAUREL      |K6S8 301815Z AUTO 00000KT 40SM 19/10 A2984 RMK AO1 T01890100
ROUNDUP     |KRPX 301815Z AUTO 05005KT 40SM 18/11 A2976 RMK AO1 T01780106
MALTA       |KM75 301815Z AUTO 00000KT 40SM 19/12 A2970 RMK AO1 T01940122






000
SXUS55 KMSO 301803
OSOMSO
MONTANA AWOS SUMMARY
NATIONAL WEATHER SERVICE MISSOULA MT
1203 PM MDT SAT AUG 30 2014

Montana AWOS Reports

LAUREL      |K6S8 301755Z AUTO 00000KT 40SM 18/09 A2985 RMK AO1 T01830094
ROUNDUP     |KRPX 301755Z AUTO 00000KT 40SM 17/10 A2977 RMK AO1 T01670100
MALTA       |KM75 301755Z AUTO 00000KT 40SM 20/13 A2971 RMK AO1 T02000128
PLAINS      |KS34 301755Z AUTO 18010G19KT 40SM 23/04 A2987 RMK AO1 T02330039
SCOBEY      |K9S2 301755Z AUTO 17005KT 5SM 16/11 A2977 RMK AO1 T01560106






000
SXUS55 KMSO 301743
OSOMSO
MONTANA AWOS SUMMARY
NATIONAL WEATHER SERVICE MISSOULA MT
1143 AM MDT SAT AUG 30 2014

Montana AWOS Reports

LAUREL      |K6S8 301735Z AUTO 00000KT 40SM 18/11 A2985 RMK AO1 T01780111
ROUNDUP     |KRPX 301735Z AUTO 00000KT 40SM 16/10 A2978 RMK AO1 T01610100
MALTA       |KM75 301735Z AUTO 21006KT 40SM 19/12 A2971 RMK AO1 T01940122






000
SXUS55 KMSO 301723
OSOMSO
MONTANA AWOS SUMMARY
NATIONAL WEATHER SERVICE MISSOULA MT
1123 AM MDT SAT AUG 30 2014

Montana AWOS Reports

LAUREL      |K6S8 301715Z AUTO 00000KT 40SM 18/10 A2985 RMK AO1 T01830100
ROUNDUP     |KRPX 301715Z AUTO 00000KT 40SM 16/11 A2978 RMK AO1 T01560106






000
SXUS55 KMSO 301713
OSOMSO
MONTANA AWOS SUMMARY
NATIONAL WEATHER SERVICE MISSOULA MT
1112 AM MDT SAT AUG 30 2014

Montana AWOS Reports

MALTA       |KM75 301655Z AUTO 00000KT 10SM 18/13 A2974 RMK AO1 T01830128






000
SXUS55 KMSO 301703
OSOMSO
MONTANA AWOS SUMMARY
NATIONAL WEATHER SERVICE MISSOULA MT
1103 AM MDT SAT AUG 30 2014

Montana AWOS Reports

LAUREL      |K6S8 301655Z AUTO 00000KT 40SM 18/09 A2985 RMK AO1 T01780089
ROUNDUP     |KRPX 301655Z AUTO 00000KT 40SM 16/11 A2977 RMK AO1 T01560106
SCOBEY      |K9S2 301655Z AUTO 18014G35KT 25SM 16/10 A2976 RMK AO1 T01560100






000
SXUS55 KMSO 301653
OSOMSO
MONTANA AWOS SUMMARY
NATIONAL WEATHER SERVICE MISSOULA MT
1053 AM MDT SAT AUG 30 2014

Montana AWOS Reports

LAUREL      |K6S8 301635Z AUTO 33006KT 40SM 17/09 A2985 RMK AO1 T01670094
ROUNDUP     |KRPX 301635Z AUTO 00000KT 15SM 16/11 A2977 RMK AO1 T01560106






000
SXUS55 KMSO 301644
OSOMSO
MONTANA AWOS SUMMARY
NATIONAL WEATHER SERVICE MISSOULA MT
1043 AM MDT SAT AUG 30 2014

Montana AWOS Reports

MALTA       |KM75 301635Z AUTO 00000KT 40SM 18/13 A2973 RMK AO1 T01830128






000
SXUS55 KMSO 301623
OSOMSO
MONTANA AWOS SUMMARY
NATIONAL WEATHER SERVICE MISSOULA MT
1023 AM MDT SAT AUG 30 2014

Montana AWOS Reports

LAUREL      |K6S8 301615Z AUTO 30004KT 40SM 16/09 A2986 RMK AO1 T01610094
ROUNDUP     |KRPX 301615Z AUTO 00000KT 15SM 16/10 A2979 RMK AO1 T01610100






000
SXUS55 KMSO 301603
OSOMSO
MONTANA AWOS SUMMARY
NATIONAL WEATHER SERVICE MISSOULA MT
1003 AM MDT SAT AUG 30 2014

Montana AWOS Reports

LAUREL      |K6S8 301555Z AUTO 30007KT 15SM 17/10 A2986 RMK AO1 T01670100
ROUNDUP     |KRPX 301555Z AUTO 00000KT 40SM 17/09 A2979 RMK AO1 T01720089
MALTA       |KM75 301555Z AUTO 00000KT 40SM 18/13 A2972 RMK AO1 T01830133
SCOBEY      |K9S2 301555Z AUTO 15008KT 25SM 15/10 A2971 RMK AO1 T01500100
PLAINS      |KS34 301555Z AUTO 21007KT 40SM 21/05 A2988 RMK AO1 T02110050






000
SXUS55 KMSO 301553
OSOMSO
MONTANA AWOS SUMMARY
NATIONAL WEATHER SERVICE MISSOULA MT
953 AM MDT SAT AUG 30 2014

Montana AWOS Reports

LAUREL      |K6S8 301535Z AUTO 30011G17KT 40SM 17/09 A2986 RMK AO1 T01720089
ROUNDUP     |KRPX 301535Z AUTO 28008KT 40SM 17/09 A2978 RMK AO1 T01720094
MALTA       |KM75 301535Z AUTO 00000KT 40SM 18/13 A2973 RMK AO1 T01780133






000
SXUS55 KMSO 301523
OSOMSO
MONTANA AWOS SUMMARY
NATIONAL WEATHER SERVICE MISSOULA MT
923 AM MDT SAT AUG 30 2014

Montana AWOS Reports

LAUREL      |K6S8 301515Z AUTO 27008KT 40SM 17/09 A2987 RMK AO1 T01720094
ROUNDUP     |KRPX 301515Z AUTO 00000KT 40SM 16/12 A2978 RMK AO1 T01610122
MALTA       |KM75 301515Z AUTO 00000KT 40SM 18/13 A2973 RMK AO1 T01780133






000
SXUS55 KMSO 301503
OSOMSO
MONTANA AWOS SUMMARY
NATIONAL WEATHER SERVICE MISSOULA MT
903 AM MDT SAT AUG 30 2014

Montana AWOS Reports

LAUREL      |K6S8 301455Z AUTO 00000KT 25SM 17/11 A2988 RMK AO1 T01670111
ROUNDUP     |KRPX 301455Z AUTO 00000KT 40SM 17/12 A2977 RMK AO1 T01720117
SCOBEY      |K9S2 301455Z AUTO 15006KT 40SM 15/09 A2978 RMK AO1 T01500089
PLAINS      |KS34 301455Z AUTO 21007KT 40SM 19/05 A2988 RMK AO1 T01890050
MALTA       |KM75 301455Z AUTO 00000KT 40SM 17/13 A2973 RMK AO1 T01720128






000
SXUS55 KMSO 301443
OSOMSO
MONTANA AWOS SUMMARY
NATIONAL WEATHER SERVICE MISSOULA MT
843 AM MDT SAT AUG 30 2014

Montana AWOS Reports

LAUREL      |K6S8 301435Z AUTO 00000KT 40SM 17/11 A2986 RMK AO1 T01720106
ROUNDUP     |KRPX 301435Z AUTO 24007KT 40SM 16/12 A2975 RMK AO1 T01610122
MALTA       |KM75 301435Z AUTO 00000KT 40SM 17/13 A2972 RMK AO1 T01720128






000
SXUS55 KMSO 301424
OSOMSO
MONTANA AWOS SUMMARY
NATIONAL WEATHER SERVICE MISSOULA MT
823 AM MDT SAT AUG 30 2014

Montana AWOS Reports

LAUREL      |K6S8 301415Z AUTO 27004KT 40SM 17/11 A2984 RMK AO1 T01670106
ROUNDUP     |KRPX 301415Z AUTO 17007KT 40SM 16/12 A2975 RMK AO1 T01560117
MALTA       |KM75 301415Z AUTO 00000KT 40SM 17/13 A2972 RMK AO1 T01670128






000
SXUS55 KMSO 301413
OSOMSO
MONTANA AWOS SUMMARY
NATIONAL WEATHER SERVICE MISSOULA MT
813 AM MDT SAT AUG 30 2014

Montana AWOS Reports

MALTA       |KM75 301355Z AUTO 00000KT 40SM 16/12 A2972 RMK AO1 T01610122






000
SXUS55 KMSO 301403
OSOMSO
MONTANA AWOS SUMMARY
NATIONAL WEATHER SERVICE MISSOULA MT
803 AM MDT SAT AUG 30 2014

Montana AWOS Reports

LAUREL      |K6S8 301355Z AUTO 00000KT 40SM 16/11 A2982 RMK AO1 T01560111
ROUNDUP     |KRPX 301355Z AUTO 00000KT 40SM 16/12 A2974 RMK AO1 T01560117
SCOBEY      |K9S2 301355Z AUTO 13015G19KT 25SM 14/08 A2978 RMK AO1 T01390083
PLAINS      |KS34 301355Z AUTO 00000KT 40SM 18/07 A2988 RMK AO1 T01780072






000
SXUS55 KMSO 301353
OSOMSO
MONTANA AWOS SUMMARY
NATIONAL WEATHER SERVICE MISSOULA MT
752 AM MDT SAT AUG 30 2014

Montana AWOS Reports

LAUREL      |K6S8 301335Z AUTO 00000KT 40SM 15/11 A2981 RMK AO1 T01500106
ROUNDUP     |KRPX 301335Z AUTO 00000KT 40SM 14/11 A2973 RMK AO1 T01440111
MALTA       |KM75 301335Z AUTO 00000KT 40SM 16/12 A2971 RMK AO1 T01610122






000
SXUS55 KMSO 301323
OSOMSO
MONTANA AWOS SUMMARY
NATIONAL WEATHER SERVICE MISSOULA MT
722 AM MDT SAT AUG 30 2014

Montana AWOS Reports

LAUREL      |K6S8 301315Z AUTO 00000KT 40SM 14/09 A2980 RMK AO1 T01390094
ROUNDUP     |KRPX 301315Z AUTO 27006KT 40SM 14/12 A2974 RMK AO1 T01440117






000
SXUS55 KMSO 301303
OSOMSO
MONTANA AWOS SUMMARY
NATIONAL WEATHER SERVICE MISSOULA MT
703 AM MDT SAT AUG 30 2014

Montana AWOS Reports

LAUREL      |K6S8 301255Z AUTO 00000KT 40SM 14/09 A2980 RMK AO1 T01390094
ROUNDUP     |KRPX 301255Z AUTO 25004KT 10SM 14/11 A2974 RMK AO1 T01440111
MALTA       |KM75 301255Z AUTO 00000KT 40SM 18/12 A2970 RMK AO1 T01780122
SCOBEY      |K9S2 301255Z AUTO 13007KT 25SM 13/08 A2980 RMK AO1 T01280078
PLAINS      |KS34 301255Z AUTO 00000KT 40SM 18/07 A2987 RMK AO1 T01780072






000
SXUS55 KMSO 301244
OSOMSO
MONTANA AWOS SUMMARY
NATIONAL WEATHER SERVICE MISSOULA MT
643 AM MDT SAT AUG 30 2014

Montana AWOS Reports

LAUREL      |K6S8 301235Z AUTO 00000KT 40SM 14/09 A2981 RMK AO1 T01390094
ROUNDUP     |KRPX 301235Z AUTO 00000KT 40SM 14/11 A2973 RMK AO1 T01390111
MALTA       |KM75 301235Z AUTO 17008KT 070V270 40SM 17/12 A2969 RMK AO1 T01720117






000
SXUS55 KMSO 301223
OSOMSO
MONTANA AWOS SUMMARY
NATIONAL WEATHER SERVICE MISSOULA MT
623 AM MDT SAT AUG 30 2014

Montana AWOS Reports

LAUREL      |K6S8 301215Z AUTO 00000KT 40SM 14/09 A2981 RMK AO1 T01390094
ROUNDUP     |KRPX 301215Z AUTO 00000KT 40SM 14/11 A2972 RMK AO1 T01390111
MALTA       |KM75 301215Z AUTO 27005KT 40SM 18/12 A2969 RMK AO1 T01780122






000
SXUS55 KMSO 301213
OSOMSO
MONTANA AWOS SUMMARY
NATIONAL WEATHER SERVICE MISSOULA MT
613 AM MDT SAT AUG 30 2014

Montana AWOS Reports

MALTA       |KM75 301155Z AUTO 07007KT 40SM 17/12 A2968 RMK AO1 T01720117






000
SXUS55 KMSO 301203
OSOMSO
MONTANA AWOS SUMMARY
NATIONAL WEATHER SERVICE MISSOULA MT
602 AM MDT SAT AUG 30 2014

Montana AWOS Reports

LAUREL      |K6S8 301155Z AUTO 00000KT 40SM 14/09 A2980 RMK AO1 T01440094
ROUNDUP     |KRPX 301155Z AUTO 00000KT 40SM 14/11 A2973 RMK AO1 T01390106
PLAINS      |KS34 301155Z AUTO 00000KT 40SM 17/07 A2987 RMK AO1 T01720067






000
SXUS55 KMSO 301153
OSOMSO
MONTANA AWOS SUMMARY
NATIONAL WEATHER SERVICE MISSOULA MT
552 AM MDT SAT AUG 30 2014

Montana AWOS Reports

MALTA       |KM75 301055Z AUTO 12011G19KT 40SM 18/11 A2973 RMK AO1 T01780111






000
SXUS55 KMSO 301143
OSOMSO
MONTANA AWOS SUMMARY
NATIONAL WEATHER SERVICE MISSOULA MT
543 AM MDT SAT AUG 30 2014

Montana AWOS Reports

LAUREL      |K6S8 301135Z AUTO 00000KT 40SM 14/10 A2980 RMK AO1 T01440100
ROUNDUP     |KRPX 301135Z AUTO 00000KT 40SM 14/11 A2973 RMK AO1 T01390106
MALTA       |KM75 301135Z AUTO 00000KT 40SM 18/12 A2971 RMK AO1 T01780117






000
SXUS55 KMSO 301123
OSOMSO
MONTANA AWOS SUMMARY
NATIONAL WEATHER SERVICE MISSOULA MT
523 AM MDT SAT AUG 30 2014

Montana AWOS Reports

LAUREL      |K6S8 301115Z AUTO 00000KT 40SM 14/09 A2981 RMK AO1 T01390094
ROUNDUP     |KRPX 301115Z AUTO 00000KT 40SM 13/10 A2973 RMK AO1 T01330100
MALTA       |KM75 301115Z AUTO 13007KT 40SM 18/12 A2971 RMK AO1 T01780117






000
SXUS55 KMSO 301103
OSOMSO
MONTANA AWOS SUMMARY
NATIONAL WEATHER SERVICE MISSOULA MT
503 AM MDT SAT AUG 30 2014

Montana AWOS Reports

LAUREL      |K6S8 301055Z AUTO 00000KT 40SM 14/09 A2981 RMK AO1 T01390094
ROUNDUP     |KRPX 301055Z AUTO 00000KT 40SM 13/10 A2974 RMK AO1 T01330100
SCOBEY      |K9S2 301055Z AUTO 13009KT 25SM 13/07 A2982 RMK AO1 T01280072






000
SXUS55 KMSO 301053
OSOMSO
MONTANA AWOS SUMMARY
NATIONAL WEATHER SERVICE MISSOULA MT
452 AM MDT SAT AUG 30 2014

Montana AWOS Reports

LAUREL      |K6S8 301035Z AUTO 00000KT 40SM 14/09 A2981 RMK AO1 T01390094
ROUNDUP     |KRPX 301035Z AUTO 00000KT 40SM 14/11 A2975 RMK AO1 T01390106
MALTA       |KM75 301035Z AUTO 00000KT 40SM 18/11 A2974 RMK AO1 T01780111






000
SXUS55 KMSO 301023
OSOMSO
MONTANA AWOS SUMMARY
NATIONAL WEATHER SERVICE MISSOULA MT
423 AM MDT SAT AUG 30 2014

Montana AWOS Reports

LAUREL      |K6S8 301015Z AUTO 00000KT 40SM 13/09 A2982 RMK AO1 T01330089
ROUNDUP     |KRPX 301015Z AUTO 00000KT 40SM 13/10 A2976 RMK AO1 T01330100
MALTA       |KM75 301015Z AUTO 00000KT 40SM 18/11 A2975 RMK AO1 T01780111






000
SXUS55 KMSO 301013
OSOMSO
MONTANA AWOS SUMMARY
NATIONAL WEATHER SERVICE MISSOULA MT
413 AM MDT SAT AUG 30 2014

Montana AWOS Reports

SCOBEY      |K9S2 300955Z AUTO 13014G19KT 25SM 13/08 A2983 RMK AO1 T01330078
PLAINS      |KS34 300955Z AUTO 18009G13KT 40SM 20/06 A2986 RMK AO1 T02000061






000
SXUS55 KMSO 301003
OSOMSO
MONTANA AWOS SUMMARY
NATIONAL WEATHER SERVICE MISSOULA MT
403 AM MDT SAT AUG 30 2014

Montana AWOS Reports

LAUREL      |K6S8 300955Z AUTO 00000KT 40SM 13/09 A2982 RMK AO1 T01330089
ROUNDUP     |KRPX 300955Z AUTO 00000KT 40SM 13/10 A2976 RMK AO1 T01330100
MALTA       |KM75 300955Z AUTO 00000KT 40SM 17/11 A2973 RMK AO1 T01720111






000
SXUS55 KMSO 300943
OSOMSO
MONTANA AWOS SUMMARY
NATIONAL WEATHER SERVICE MISSOULA MT
343 AM MDT SAT AUG 30 2014

Montana AWOS Reports

LAUREL      |K6S8 300935Z AUTO 00000KT 40SM 14/10 A2983 RMK AO1 T01440100
ROUNDUP     |KRPX 300935Z AUTO 00000KT 40SM 13/10 A2976 RMK AO1 T01330100
MALTA       |KM75 300935Z AUTO 00000KT 40SM 17/11 A2974 RMK AO1 T01720111






000
SXUS55 KMSO 300923
OSOMSO
MONTANA AWOS SUMMARY
NATIONAL WEATHER SERVICE MISSOULA MT
322 AM MDT SAT AUG 30 2014

Montana AWOS Reports

LAUREL      |K6S8 300915Z AUTO 00000KT 40SM 15/10 A2983 RMK AO1 T01500100
ROUNDUP     |KRPX 300915Z AUTO 00000KT 40SM 14/10 A2975 RMK AO1 T01440100
MALTA       |KM75 300915Z AUTO 00000KT 40SM 17/12 A2974 RMK AO1 T01720117






000
SXUS55 KMSO 300913
OSOMSO
MONTANA AWOS SUMMARY
NATIONAL WEATHER SERVICE MISSOULA MT
313 AM MDT SAT AUG 30 2014

Montana AWOS Reports

PLAINS      |KS34 300855Z AUTO 17006KT 40SM 21/05 A2985 RMK AO1 T02060050
SCOBEY      |K9S2 300855Z AUTO 13009KT 25SM 13/07 A2987 RMK AO1 T01280072
MALTA       |KM75 300855Z AUTO 00000KT 40SM 17/11 A2975 RMK AO1 T01670111






000
SXUS55 KMSO 300903
OSOMSO
MONTANA AWOS SUMMARY
NATIONAL WEATHER SERVICE MISSOULA MT
303 AM MDT SAT AUG 30 2014

Montana AWOS Reports

LAUREL      |K6S8 300855Z AUTO 00000KT 40SM 16/10 A2983 RMK AO1 T01560100
ROUNDUP     |KRPX 300855Z AUTO 00000KT 40SM 14/10 A2977 RMK AO1 T01440100
MALTA       |KM75 300855Z AUTO 00000KT 40SM 17/11 A2975 RMK AO1 T01670111






000
SXUS55 KMSO 300843
OSOMSO
MONTANA AWOS SUMMARY
NATIONAL WEATHER SERVICE MISSOULA MT
243 AM MDT SAT AUG 30 2014

Montana AWOS Reports

LAUREL      |K6S8 300835Z AUTO 29004KT 40SM 16/11 A2984 RMK AO1 T01560106
ROUNDUP     |KRPX 300835Z AUTO 00000KT 40SM 14/10 A2978 RMK AO1 T01440100
MALTA       |KM75 300835Z AUTO 00000KT 40SM 16/11 A2976 RMK AO1 T01610111






000
SXUS55 KMSO 300833
OSOMSO
MONTANA AWOS SUMMARY
NATIONAL WEATHER SERVICE MISSOULA MT
233 AM MDT SAT AUG 30 2014

Montana AWOS Reports

PLAINS      |KS34 300755Z AUTO 00000KT 40SM 21/04 A2983 RMK AO1 T02110039






000
SXUS55 KMSO 300823
OSOMSO
MONTANA AWOS SUMMARY
NATIONAL WEATHER SERVICE MISSOULA MT
223 AM MDT SAT AUG 30 2014

Montana AWOS Reports

LAUREL      |K6S8 300815Z AUTO 28004KT 40SM 15/11 A2984 RMK AO1 T01500106
ROUNDUP     |KRPX 300815Z AUTO 00000KT 40SM 14/10 A2978 RMK AO1 T01440100
MALTA       |KM75 300815Z AUTO 00000KT 40SM 16/11 A2976 RMK AO1 T01610111






000
SXUS55 KMSO 300813
OSOMSO
MONTANA AWOS SUMMARY
NATIONAL WEATHER SERVICE MISSOULA MT
212 AM MDT SAT AUG 30 2014

Montana AWOS Reports

SCOBEY      |K9S2 300755Z AUTO 13007KT 40SM 13/07 A2988 RMK AO1 T01330067






000
SXUS55 KMSO 300803
OSOMSO
MONTANA AWOS SUMMARY
NATIONAL WEATHER SERVICE MISSOULA MT
203 AM MDT SAT AUG 30 2014

Montana AWOS Reports

LAUREL      |K6S8 300755Z AUTO 30004KT 40SM 15/11 A2984 RMK AO1 T01500106
ROUNDUP     |KRPX 300755Z AUTO 00000KT 40SM 14/10 A2978 RMK AO1 T01440100
MALTA       |KM75 300755Z AUTO 00000KT 40SM 16/11 A2977 RMK AO1 T01610106






000
SXUS55 KMSO 300753
OSOMSO
MONTANA AWOS SUMMARY
NATIONAL WEATHER SERVICE MISSOULA MT
152 AM MDT SAT AUG 30 2014

Montana AWOS Reports

MALTA       |KM75 300555Z AUTO 08006KT 40SM 17/11 A2981 RMK AO1 T01670111
MALTA       |KM75 300655Z AUTO 07004KT 40SM 17/11 A2980 RMK AO1 T01670111






000
SXUS55 KMSO 300743
OSOMSO
MONTANA AWOS SUMMARY
NATIONAL WEATHER SERVICE MISSOULA MT
143 AM MDT SAT AUG 30 2014

Montana AWOS Reports

LAUREL      |K6S8 300735Z AUTO 00000KT 40SM 16/10 A2985 RMK AO1 T01560100
ROUNDUP     |KRPX 300735Z AUTO 00000KT 40SM 14/10 A2978 RMK AO1 T01440100
MALTA       |KM75 300735Z AUTO 08004KT 40SM 17/11 A2978 RMK AO1 T01670111






000
SXUS55 KMSO 300724
OSOMSO
MONTANA AWOS SUMMARY
NATIONAL WEATHER SERVICE MISSOULA MT
123 AM MDT SAT AUG 30 2014

Montana AWOS Reports

LAUREL      |K6S8 300715Z AUTO 00000KT 40SM 16/11 A2985 RMK AO1 T01610106
ROUNDUP     |KRPX 300715Z AUTO 00000KT 40SM 14/10 A2979 RMK AO1 T01440100






000
SXUS55 KMSO 300713
OSOMSO
MONTANA AWOS SUMMARY
NATIONAL WEATHER SERVICE MISSOULA MT
112 AM MDT SAT AUG 30 2014

Montana AWOS Reports

MALTA       |KM75 300455Z AUTO 09004KT 40SM 17/12 A2983 RMK AO1 T01670122






000
SXUS55 KMSO 300703
OSOMSO
MONTANA AWOS SUMMARY
NATIONAL WEATHER SERVICE MISSOULA MT
103 AM MDT SAT AUG 30 2014

Montana AWOS Reports

ROUNDUP     |KRPX 300655Z AUTO 00000KT 40SM 15/10 A2979 RMK AO1 T01500100
SCOBEY      |K9S2 300655Z AUTO 13004KT 40SM 12/07 A2990 RMK AO1 T01220067
PLAINS      |KS34 300655Z AUTO 21004KT 40SM 23/03 A2984 RMK AO1 T02280028
LAUREL      |K6S8 300655Z AUTO 00000KT 40SM 17/11 A2985 RMK AO1 T01670106
MALTA       |KM75 300255Z AUTO 00000KT 40SM 18/12 A2986 RMK AO1 T01830117
MALTA       |KM75 300355Z AUTO 00000KT 40SM 17/12 A2985 RMK AO1 T01720117






000
SXUS55 KMSO 300644
OSOMSO
MONTANA AWOS SUMMARY
NATIONAL WEATHER SERVICE MISSOULA MT
1243 AM MDT SAT AUG 30 2014

Montana AWOS Reports

ROUNDUP     |KRPX 300635Z AUTO 00000KT 40SM 14/09 A2979 RMK AO1 T01440094
MALTA       |KM75 300635Z AUTO 08006KT 40SM 17/11 A2980 RMK AO1 T01670111
LAUREL      |K6S8 300635Z AUTO 00000KT 40SM 17/11 A2986 RMK AO1 T01720111






000
SXUS55 KMSO 300623
OSOMSO
MONTANA AWOS SUMMARY
NATIONAL WEATHER SERVICE MISSOULA MT
1222 AM MDT SAT AUG 30 2014

Montana AWOS Reports

LAUREL      |K6S8 300615Z AUTO 00000KT 40SM 17/09 A2987 RMK AO1 T01720094
ROUNDUP     |KRPX 300615Z AUTO 00000KT 40SM 15/10 A2980 RMK AO1 T01500100
MALTA       |KM75 300615Z AUTO 08007KT 40SM 17/12 A2980 RMK AO1 T01720117






000
SXUS55 KMSO 300613
OSOMSO
MONTANA AWOS SUMMARY
NATIONAL WEATHER SERVICE MISSOULA MT
1213 AM MDT SAT AUG 30 2014

Montana AWOS Reports

MALTA       |KM75 300155Z AUTO 09004KT 40SM 21/13 A2986 RMK AO1 T02110128






000
SXUS55 KMSO 300603
OSOMSO
MONTANA AWOS SUMMARY
NATIONAL WEATHER SERVICE MISSOULA MT
1203 AM MDT SAT AUG 30 2014

Montana AWOS Reports

ROUNDUP     |KRPX 300555Z AUTO 00000KT 40SM 16/10 A2981 RMK AO1 T01610100
PLAINS      |KS34 300555Z AUTO 00000KT 40SM 23/02 A2985 RMK AO1 T02330022
LAUREL      |K6S8 300555Z AUTO 35004KT 40SM 17/10 A2987 RMK AO1 T01720100
SCOBEY      |K9S2 300555Z AUTO 00000KT 40SM 12/06 A2992 RMK AO1 T01220061






000
SXUS55 KMSO 300553
OSOMSO
MONTANA AWOS SUMMARY
NATIONAL WEATHER SERVICE MISSOULA MT
1153 PM MDT FRI AUG 29 2014

Montana AWOS Reports

LAUREL      |K6S8 300535Z AUTO 34005KT 40SM 18/10 A2988 RMK AO1 T01780100






000
SXUS55 KMSO 300543
OSOMSO
MONTANA AWOS SUMMARY
NATIONAL WEATHER SERVICE MISSOULA MT
1142 PM MDT FRI AUG 29 2014

Montana AWOS Reports

PLAINS      |KS34 300455Z AUTO VRB06KT 40SM 24/01 A2984 RMK AO1 T02440011
ROUNDUP     |KRPX 300535Z AUTO 00000KT 40SM 16/09 A2981 RMK AO1 T01610094
MALTA       |KM75 300535Z AUTO 09005KT 40SM 17/12 A2982 RMK AO1 T01670117






000
SXUS55 KMSO 300533
OSOMSO
MONTANA AWOS SUMMARY
NATIONAL WEATHER SERVICE MISSOULA MT
1132 PM MDT FRI AUG 29 2014

Montana AWOS Reports

SCOBEY      |K9S2 300355Z AUTO 14007KT 40SM 14/07 A2993 RMK AO1 T01390067
SCOBEY      |K9S2 300455Z AUTO 13006KT 40SM 13/06 A2993 RMK AO1 T01330061






000
SXUS55 KMSO 300523
OSOMSO
MONTANA AWOS SUMMARY
NATIONAL WEATHER SERVICE MISSOULA MT
1122 PM MDT FRI AUG 29 2014

Montana AWOS Reports

PLAINS      |KS34 300355Z AUTO 20007KT 40SM 24/02 A2984 RMK AO1 T02440022
SCOBEY      |K9S2 300255Z AUTO 14006KT 40SM 14/08 A2994 RMK AO1 T01390078
LAUREL      |K6S8 300515Z AUTO 35005KT 40SM 18/11 A2988 RMK AO1 T01780106
ROUNDUP     |KRPX 300515Z AUTO 00000KT 40SM 17/10 A2982 RMK AO1 T01670100
MALTA       |KM75 300515Z AUTO 09004KT 40SM 17/12 A2982 RMK AO1 T01670117






000
SXUS55 KMSO 300504
OSOMSO
MONTANA AWOS SUMMARY
NATIONAL WEATHER SERVICE MISSOULA MT
1103 PM MDT FRI AUG 29 2014

Montana AWOS Reports

LAUREL      |K6S8 300455Z AUTO 35004KT 40SM 18/11 A2989 RMK AO1 T01780111
ROUNDUP     |KRPX 300455Z AUTO 00000KT 40SM 16/10 A2983 RMK AO1 T01610100
MALTA       |KM75 300455Z AUTO 09004KT 40SM 17/12 A2983 RMK AO1 T01670122
SCOBEY      |K9S2 300155Z AUTO 00000KT 40SM 18/08 A2994 RMK AO1 T01780078






000
SXUS55 KMSO 300453
OSOMSO
MONTANA AWOS SUMMARY
NATIONAL WEATHER SERVICE MISSOULA MT
1053 PM MDT FRI AUG 29 2014

Montana AWOS Reports

LAUREL      |K6S8 300435Z AUTO 35004KT 40SM 18/11 A2990 RMK AO1 T01780111
ROUNDUP     |KRPX 300435Z AUTO 00000KT 40SM 16/09 A2983 RMK AO1 T01610094
MALTA       |KM75 300435Z AUTO 09004KT 40SM 17/12 A2984 RMK AO1 T01670122






000
SXUS55 KMSO 300433
OSOMSO
MONTANA AWOS SUMMARY
NATIONAL WEATHER SERVICE MISSOULA MT
1033 PM MDT FRI AUG 29 2014

Montana AWOS Reports

PLAINS      |KS34 300255Z AUTO 00000KT 40SM 26/02 A2983 RMK AO1 T02560017






000
SXUS55 KMSO 300423
OSOMSO
MONTANA AWOS SUMMARY
NATIONAL WEATHER SERVICE MISSOULA MT
1023 PM MDT FRI AUG 29 2014

Montana AWOS Reports

LAUREL      |K6S8 300415Z AUTO 36004KT 40SM 18/12 A2990 RMK AO1 T01830117
ROUNDUP     |KRPX 300415Z AUTO 00000KT 40SM 17/10 A2984 RMK AO1 T01720100
MALTA       |KM75 300415Z AUTO 00000KT 40SM 17/12 A2984 RMK AO1 T01670117






000
SXUS55 KMSO 300403
OSOMSO
MONTANA AWOS SUMMARY
NATIONAL WEATHER SERVICE MISSOULA MT
1003 PM MDT FRI AUG 29 2014

Montana AWOS Reports

LAUREL      |K6S8 300355Z AUTO 36006KT 40SM 18/11 A2990 RMK AO1 T01830111
ROUNDUP     |KRPX 300355Z AUTO 00000KT 40SM 17/09 A2985 RMK AO1 T01720094






000
SXUS55 KMSO 300343
OSOMSO
MONTANA AWOS SUMMARY
NATIONAL WEATHER SERVICE MISSOULA MT
943 PM MDT FRI AUG 29 2014

Montana AWOS Reports

LAUREL      |K6S8 300335Z AUTO 02004KT 25SM 19/12 A2991 RMK AO1 T01890117
ROUNDUP     |KRPX 300335Z AUTO 00000KT 40SM 18/09 A2985 RMK AO1 T01780094






000
SXUS55 KMSO 300323
OSOMSO
MONTANA AWOS SUMMARY
NATIONAL WEATHER SERVICE MISSOULA MT
923 PM MDT FRI AUG 29 2014

Montana AWOS Reports

LAUREL      |K6S8 300315Z AUTO 00000KT 40SM 19/12 A2992 RMK AO1 T01940122
ROUNDUP     |KRPX 300315Z AUTO 00000KT 40SM 18/10 A2985 RMK AO1 T01830100
MALTA       |KM75 300315Z AUTO 00000KT 40SM 18/12 A2986 RMK AO1 T01780117






000
SXUS55 KMSO 300303
OSOMSO
MONTANA AWOS SUMMARY
NATIONAL WEATHER SERVICE MISSOULA MT
903 PM MDT FRI AUG 29 2014

Montana AWOS Reports

LAUREL      |K6S8 300255Z AUTO 00000KT 40SM 20/12 A2992 RMK AO1 T02000122
ROUNDUP     |KRPX 300255Z AUTO 00000KT 40SM 18/09 A2985 RMK AO1 T01830094






000
SXUS55 KMSO 300243
OSOMSO
MONTANA AWOS SUMMARY
NATIONAL WEATHER SERVICE MISSOULA MT
843 PM MDT FRI AUG 29 2014

Montana AWOS Reports

LAUREL      |K6S8 300235Z AUTO 00000KT 40SM 20/12 A2992 RMK AO1 T02000122
ROUNDUP     |KRPX 300235Z AUTO 00000KT 40SM 19/10 A2985 RMK AO1 T01940100






000
SXUS55 KMSO 300224
OSOMSO
MONTANA AWOS SUMMARY
NATIONAL WEATHER SERVICE MISSOULA MT
823 PM MDT FRI AUG 29 2014

Montana AWOS Reports

LAUREL      |K6S8 300215Z AUTO 03005KT 40SM 21/12 A2992 RMK AO1 T02060122
ROUNDUP     |KRPX 300215Z AUTO 00000KT 40SM 20/10 A2985 RMK AO1 T02000100
MALTA       |KM75 300215Z AUTO 00000KT 40SM 20/13 A2986 RMK AO1 T02000128






000
SXUS55 KMSO 300203
OSOMSO
MONTANA AWOS SUMMARY
NATIONAL WEATHER SERVICE MISSOULA MT
803 PM MDT FRI AUG 29 2014

Montana AWOS Reports

LAUREL      |K6S8 300155Z AUTO 03004KT 40SM 21/12 A2992 RMK AO1 T02110122
ROUNDUP     |KRPX 300155Z AUTO 00000KT 40SM 21/10 A2985 RMK AO1 T02060100






000
SXUS55 KMSO 300143
OSOMSO
MONTANA AWOS SUMMARY
NATIONAL WEATHER SERVICE MISSOULA MT
743 PM MDT FRI AUG 29 2014

Montana AWOS Reports

LAUREL      |K6S8 300135Z AUTO 04005KT 40SM 22/12 A2992 RMK AO1 T02220122
ROUNDUP     |KRPX 300135Z AUTO 00000KT 40SM 22/09 A2985 RMK AO1 T02170094
MALTA       |KM75 300135Z AUTO 00000KT 40SM 22/13 A2986 RMK AO1 T02170128






000
SXUS55 KMSO 300133
OSOMSO
MONTANA AWOS SUMMARY
NATIONAL WEATHER SERVICE MISSOULA MT
732 PM MDT FRI AUG 29 2014

Montana AWOS Reports

SCOBEY      |K9S2 300055Z AUTO 00000KT 40SM 21/07 A2994 RMK AO1 T02110067






000
SXUS55 KMSO 300124
OSOMSO
MONTANA AWOS SUMMARY
NATIONAL WEATHER SERVICE MISSOULA MT
723 PM MDT FRI AUG 29 2014

Montana AWOS Reports

LAUREL      |K6S8 300115Z AUTO 05006KT 40SM 23/12 A2992 RMK AO1 T02280122
ROUNDUP     |KRPX 300115Z AUTO 11004KT 40SM 23/09 A2985 RMK AO1 T02280094
MALTA       |KM75 300115Z AUTO 09006KT 40SM 22/13 A2986 RMK AO1 T02220128
PLAINS      |KS34 300055Z AUTO 22006KT 40SM 30/04 A2981 RMK AO1 T03000039






000
SXUS55 KMSO 300103
OSOMSO
MONTANA AWOS SUMMARY
NATIONAL WEATHER SERVICE MISSOULA MT
703 PM MDT FRI AUG 29 2014

Montana AWOS Reports

LAUREL      |K6S8 300055Z AUTO 05006KT 40SM 24/13 A2992 RMK AO1 T02390128
ROUNDUP     |KRPX 300055Z AUTO 12005KT 40SM 23/09 A2986 RMK AO1 T02330094
MALTA       |KM75 300055Z AUTO 11004KT 40SM 22/12 A2987 RMK AO1 T02220122






000
SXUS55 KMSO 300053
OSOMSO
MONTANA AWOS SUMMARY
NATIONAL WEATHER SERVICE MISSOULA MT
652 PM MDT FRI AUG 29 2014

Montana AWOS Reports

LAUREL      |K6S8 300035Z AUTO 06007KT 40SM 24/12 A2992 RMK AO1 T02440122
ROUNDUP     |KRPX 300035Z AUTO 10006KT 40SM 24/09 A2986 RMK AO1 T02390094






000
SXUS55 KMSO 300033
OSOMSO
MONTANA AWOS SUMMARY
NATIONAL WEATHER SERVICE MISSOULA MT
633 PM MDT FRI AUG 29 2014

Montana AWOS Reports

LAUREL      |K6S8 300015Z AUTO 05007KT 40SM 24/12 A2993 RMK AO1 T02440117
ROUNDUP     |KRPX 300015Z AUTO 12006KT 40SM 24/09 A2986 RMK AO1 T02390089
MALTA       |KM75 300015Z AUTO 12005KT 40SM 23/12 A2988 RMK AO1 T02280117






000
SXUS55 KMSO 300003
OSOMSO
MONTANA AWOS SUMMARY
NATIONAL WEATHER SERVICE MISSOULA MT
603 PM MDT FRI AUG 29 2014

Montana AWOS Reports

LAUREL      |K6S8 292355Z AUTO 05008KT 40SM 25/12 A2993 RMK AO1 T02500122
ROUNDUP     |KRPX 292355Z AUTO 10007KT 40SM 24/09 A2986 RMK AO1 T02440094
PLAINS      |KS34 292355Z AUTO 26009G13KT 40SM 31/04 A2982 RMK AO1 T03110039






000
SXUS55 KMSO 292354
OSOMSO
MONTANA AWOS SUMMARY
NATIONAL WEATHER SERVICE MISSOULA MT
553 PM MDT FRI AUG 29 2014

Montana AWOS Reports

SCOBEY      |K9S2 292255Z AUTO 00000KT 40SM 22/08 A2996 RMK AO1 T02220078






000
SXUS55 KMSO 292324
OSOMSO
MONTANA AWOS SUMMARY
NATIONAL WEATHER SERVICE MISSOULA MT
523 PM MDT FRI AUG 29 2014

Montana AWOS Reports

MALTA       |KM75 292255Z AUTO 11007KT 40SM 22/11 A2989 RMK AO1 T02220106
LAUREL      |K6S8 292315Z AUTO 06009G13KT 40SM 26/12 A2994 RMK AO1 T02560122
ROUNDUP     |KRPX 292315Z AUTO 15006KT 40SM 24/08 A2987 RMK AO1 T02440078
MALTA       |KM75 292315Z AUTO 00000KT 40SM 22/11 A2989 RMK AO1 T02220111






000
SXUS55 KMSO 292303
OSOMSO
MONTANA AWOS SUMMARY
NATIONAL WEATHER SERVICE MISSOULA MT
503 PM MDT FRI AUG 29 2014

Montana AWOS Reports

LAUREL      |K6S8 292255Z AUTO 04008KT 40SM 26/12 A2994 RMK AO1 T02560122
ROUNDUP     |KRPX 292255Z AUTO 07004KT 40SM 24/08 A2988 RMK AO1 T02440083






000
SXUS55 KMSO 292244
OSOMSO
MONTANA AWOS SUMMARY
NATIONAL WEATHER SERVICE MISSOULA MT
443 PM MDT FRI AUG 29 2014

Montana AWOS Reports

LAUREL      |K6S8 292235Z AUTO 05009KT 40SM 26/12 A2994 RMK AO1 T02560122
ROUNDUP     |KRPX 292235Z AUTO 14006KT 40SM 24/09 A2988 RMK AO1 T02440089






000
SXUS55 KMSO 292224
OSOMSO
MONTANA AWOS SUMMARY
NATIONAL WEATHER SERVICE MISSOULA MT
423 PM MDT FRI AUG 29 2014

Montana AWOS Reports

LAUREL      |K6S8 292215Z AUTO 04008KT 40SM 26/12 A2995 RMK AO1 T02560122
ROUNDUP     |KRPX 292215Z AUTO 14005KT 40SM 24/09 A2988 RMK AO1 T02440089






000
SXUS55 KMSO 292203
OSOMSO
MONTANA AWOS SUMMARY
NATIONAL WEATHER SERVICE MISSOULA MT
403 PM MDT FRI AUG 29 2014

Montana AWOS Reports

LAUREL      |K6S8 292155Z AUTO 07007KT 40SM 26/12 A2995 RMK AO1 T02560117
ROUNDUP     |KRPX 292155Z AUTO 00000KT 40SM 24/08 A2989 RMK AO1 T02440083
MALTA       |KM75 292155Z AUTO 00000KT 40SM 22/12 A2991 RMK AO1 T02170117






000
SXUS55 KMSO 292153
OSOMSO
MONTANA AWOS SUMMARY
NATIONAL WEATHER SERVICE MISSOULA MT
353 PM MDT FRI AUG 29 2014

Montana AWOS Reports

MALTA       |KM75 292055Z AUTO 00000KT 40SM 21/11 A2994 RMK AO1 T02060106






000
SXUS55 KMSO 292143
OSOMSO
MONTANA AWOS SUMMARY
NATIONAL WEATHER SERVICE MISSOULA MT
343 PM MDT FRI AUG 29 2014

Montana AWOS Reports

LAUREL      |K6S8 292135Z AUTO 04006KT 40SM 25/12 A2996 RMK AO1 T02500117
ROUNDUP     |KRPX 292135Z AUTO 00000KT 40SM 24/09 A2989 RMK AO1 T02390089






000
SXUS55 KMSO 292133
OSOMSO
MONTANA AWOS SUMMARY
NATIONAL WEATHER SERVICE MISSOULA MT
333 PM MDT FRI AUG 29 2014

Montana AWOS Reports

LAUREL      |K6S8 292115Z AUTO 03007KT 40SM 24/12 A2997 RMK AO1 T02440117
ROUNDUP     |KRPX 292115Z AUTO 00000KT 40SM 24/09 A2990 RMK AO1 T02390089
MALTA       |KM75 292115Z AUTO 00000KT 40SM 21/11 A2993 RMK AO1 T02110111






000
SXUS55 KMSO 292103
OSOMSO
MONTANA AWOS SUMMARY
NATIONAL WEATHER SERVICE MISSOULA MT
303 PM MDT FRI AUG 29 2014

Montana AWOS Reports

LAUREL      |K6S8 292055Z AUTO 04007KT 40SM 24/11 A2998 RMK AO1 T02440111
ROUNDUP     |KRPX 292055Z AUTO 00000KT 40SM 24/09 A2991 RMK AO1 T02390094
SCOBEY      |K9S2 292055Z AUTO 00000KT 40SM 22/08 A2998 RMK AO1 T02170083






000
SXUS55 KMSO 292044
OSOMSO
MONTANA AWOS SUMMARY
NATIONAL WEATHER SERVICE MISSOULA MT
243 PM MDT FRI AUG 29 2014

Montana AWOS Reports

LAUREL      |K6S8 292035Z AUTO 04006KT 40SM 24/12 A2999 RMK AO1 T02390117
ROUNDUP     |KRPX 292035Z AUTO 00000KT 40SM 23/09 A2992 RMK AO1 T02330094






000
SXUS55 KMSO 292033
OSOMSO
MONTANA AWOS SUMMARY
NATIONAL WEATHER SERVICE MISSOULA MT
232 PM MDT FRI AUG 29 2014

Montana AWOS Reports

LAUREL      |K6S8 292015Z AUTO 07005KT 40SM 24/11 A3000 RMK AO1 T02390111






000
SXUS55 KMSO 292024
OSOMSO
MONTANA AWOS SUMMARY
NATIONAL WEATHER SERVICE MISSOULA MT
223 PM MDT FRI AUG 29 2014

Montana AWOS Reports

ROUNDUP     |KRPX 292015Z AUTO 00000KT 40SM 23/09 A2993 RMK AO1 T02280094






000
SXUS55 KMSO 292004
OSOMSO
MONTANA AWOS SUMMARY
NATIONAL WEATHER SERVICE MISSOULA MT
203 PM MDT FRI AUG 29 2014

Montana AWOS Reports

LAUREL      |K6S8 291955Z AUTO 03006KT 40SM 23/11 A3001 RMK AO1 T02330111
ROUNDUP     |KRPX 291955Z AUTO 10007KT 40SM 23/10 A2993 RMK AO1 T02280100
MALTA       |KM75 291955Z AUTO 00000KT 40SM 21/11 A2996 RMK AO1 T02060111
MALTA       |KM75 291955Z AUTO 00000KT 40SM 21/11 A2996 RMK AO1 T02060111
PLAINS      |KS34 291955Z AUTO 00000KT 15SM 29/07 A2989 RMK AO1 T02940067






000
SXUS55 KMSO 291953
OSOMSO
MONTANA AWOS SUMMARY
NATIONAL WEATHER SERVICE MISSOULA MT
153 PM MDT FRI AUG 29 2014

Montana AWOS Reports

LAUREL      |K6S8 291935Z AUTO 03005KT 40SM 23/11 A3002 RMK AO1 T02280111
ROUNDUP     |KRPX 291935Z AUTO 10004KT 40SM 22/09 A2994 RMK AO1 T02170094






000
SXUS55 KMSO 291923
OSOMSO
MONTANA AWOS SUMMARY
NATIONAL WEATHER SERVICE MISSOULA MT
123 PM MDT FRI AUG 29 2014

Montana AWOS Reports

LAUREL      |K6S8 291915Z AUTO 03006KT 40SM 22/11 A3002 RMK AO1 T02220111
ROUNDUP     |KRPX 291915Z AUTO 05005KT 40SM 22/10 A2995 RMK AO1 T02170100






000
SXUS55 KMSO 291903
OSOMSO
MONTANA AWOS SUMMARY
NATIONAL WEATHER SERVICE MISSOULA MT
103 PM MDT FRI AUG 29 2014

Montana AWOS Reports

LAUREL      |K6S8 291855Z AUTO 03004KT 40SM 22/11 A3003 RMK AO1 T02170106
ROUNDUP     |KRPX 291855Z AUTO 00000KT 40SM 21/10 A2996 RMK AO1 T02060100
MALTA       |KM75 291855Z AUTO 00000KT 40SM 19/11 A2999 RMK AO1 T01890106
SCOBEY      |K9S2 291855Z AUTO 00000KT 40SM 19/08 A3001 RMK AO1 T01890083






000
SXUS55 KMSO 291843
OSOMSO
MONTANA AWOS SUMMARY
NATIONAL WEATHER SERVICE MISSOULA MT
1243 PM MDT FRI AUG 29 2014

Montana AWOS Reports

LAUREL      |K6S8 291835Z AUTO 06005KT 40SM 22/11 A3004 RMK AO1 T02170106
ROUNDUP     |KRPX 291835Z AUTO 00000KT 40SM 21/09 A2997 RMK AO1 T02060094
MALTA       |KM75 291835Z AUTO 00000KT 40SM 19/11 A2999 RMK AO1 T01940111






000
SXUS55 KMSO 291824
OSOMSO
MONTANA AWOS SUMMARY
NATIONAL WEATHER SERVICE MISSOULA MT
1223 PM MDT FRI AUG 29 2014

Montana AWOS Reports

LAUREL      |K6S8 291815Z AUTO 03005KT 40SM 21/11 A3005 RMK AO1 T02110106
ROUNDUP     |KRPX 291815Z AUTO 11004KT 40SM 20/09 A2998 RMK AO1 T02000094






000
SXUS55 KMSO 291803
OSOMSO
MONTANA AWOS SUMMARY
NATIONAL WEATHER SERVICE MISSOULA MT
1203 PM MDT FRI AUG 29 2014

Montana AWOS Reports

LAUREL      |K6S8 291755Z AUTO 00000KT 40SM 21/11 A3006 RMK AO1 T02060106
ROUNDUP     |KRPX 291755Z AUTO 00000KT 40SM 19/09 A2998 RMK AO1 T01940094
MALTA       |KM75 291755Z AUTO 00000KT 40SM 18/11 A3001 RMK AO1 T01830106
SCOBEY      |K9S2 291755Z AUTO 34006KT 40SM 18/08 A3001 RMK AO1 T01780083






000
SXUS55 KMSO 291753
OSOMSO
MONTANA AWOS SUMMARY
NATIONAL WEATHER SERVICE MISSOULA MT
1152 AM MDT FRI AUG 29 2014

Montana AWOS Reports

LAUREL      |K6S8 291735Z AUTO 06004KT 40SM 20/10 A3006 RMK AO1 T02000100
ROUNDUP     |KRPX 291735Z AUTO 12006KT 40SM 19/10 A2999 RMK AO1 T01940100
MALTA       |KM75 291735Z AUTO 00000KT 40SM 18/11 A3001 RMK AO1 T01830111






000
SXUS55 KMSO 291724
OSOMSO
MONTANA AWOS SUMMARY
NATIONAL WEATHER SERVICE MISSOULA MT
1123 AM MDT FRI AUG 29 2014

Montana AWOS Reports

LAUREL      |K6S8 291715Z AUTO 01004KT 40SM 20/10 A3006 RMK AO1 T02000100
ROUNDUP     |KRPX 291715Z AUTO 00000KT 40SM 18/09 A3000 RMK AO1 T01830094
MALTA       |KM75 291715Z AUTO 00000KT 40SM 18/11 A3002 RMK AO1 T01830111






000
SXUS55 KMSO 291703
OSOMSO
MONTANA AWOS SUMMARY
NATIONAL WEATHER SERVICE MISSOULA MT
1103 AM MDT FRI AUG 29 2014

Montana AWOS Reports

ROUNDUP     |KRPX 291655Z AUTO 00000KT 40SM 18/10 A3000 RMK AO1 T01830100
SCOBEY      |K9S2 291655Z AUTO 34006KT 40SM 17/09 A3002 RMK AO1 T01670094
PLAINS      |KS34 291655Z AUTO 00000KT 40SM 20/07 A2998 RMK AO1 T02000072
LAUREL      |K6S8 291655Z AUTO 04006KT 40SM 19/10 A3007 RMK AO1 T01940100
MALTA       |KM75 291655Z AUTO 00000KT 40SM 18/11 A3002 RMK AO1 T01830106






000
SXUS55 KMSO 291644
OSOMSO
MONTANA AWOS SUMMARY
NATIONAL WEATHER SERVICE MISSOULA MT
1043 AM MDT FRI AUG 29 2014

Montana AWOS Reports

LAUREL      |K6S8 291635Z AUTO 00000KT 40SM 19/09 A3008 RMK AO1 T01890094
ROUNDUP     |KRPX 291635Z AUTO 00000KT 40SM 18/10 A3001 RMK AO1 T01780100






000
SXUS55 KMSO 291623
OSOMSO
MONTANA AWOS SUMMARY
NATIONAL WEATHER SERVICE MISSOULA MT
1023 AM MDT FRI AUG 29 2014

Montana AWOS Reports

ROUNDUP     |KRPX 291615Z AUTO 00000KT 40SM 17/09 A3001 RMK AO1 T01720094
MALTA       |KM75 291615Z AUTO 00000KT 40SM 17/10 A3003 RMK AO1 T01670100
LAUREL      |K6S8 291615Z AUTO 00000KT 40SM 18/09 A3008 RMK AO1 T01830094






000
SXUS55 KMSO 291603
OSOMSO
MONTANA AWOS SUMMARY
NATIONAL WEATHER SERVICE MISSOULA MT
1003 AM MDT FRI AUG 29 2014

Montana AWOS Reports

LAUREL      |K6S8 291555Z AUTO 00000KT 40SM 18/09 A3008 RMK AO1 T01830094
ROUNDUP     |KRPX 291555Z AUTO 00000KT 40SM 17/09 A3001 RMK AO1 T01670094
MALTA       |KM75 291555Z AUTO 00000KT 40SM 16/11 A3003 RMK AO1 T01610106
SCOBEY      |K9S2 291555Z AUTO 34008KT 40SM 15/10 A3003 RMK AO1 T01500100
MALTA       |KM75 291555Z AUTO 00000KT 40SM 16/11 A3003 RMK AO1 T01610106






000
SXUS55 KMSO 291523
OSOMSO
MONTANA AWOS SUMMARY
NATIONAL WEATHER SERVICE MISSOULA MT
923 AM MDT FRI AUG 29 2014

Montana AWOS Reports

LAUREL      |K6S8 291515Z AUTO 00000KT 40SM 17/11 A3008 RMK AO1 T01720106
ROUNDUP     |KRPX 291515Z AUTO 00000KT 40SM 16/09 A3001 RMK AO1 T01560094
MALTA       |KM75 291515Z AUTO 00000KT 40SM 16/11 A3003 RMK AO1 T01560106






000
SXUS55 KMSO 291513
OSOMSO
MONTANA AWOS SUMMARY
NATIONAL WEATHER SERVICE MISSOULA MT
913 AM MDT FRI AUG 29 2014

Montana AWOS Reports

MALTA       |KM75 291455Z AUTO 00000KT 40SM 15/11 A3003 RMK AO1 T01500106






000
SXUS55 KMSO 291504
OSOMSO
MONTANA AWOS SUMMARY
NATIONAL WEATHER SERVICE MISSOULA MT
903 AM MDT FRI AUG 29 2014

Montana AWOS Reports

LAUREL      |K6S8 291455Z AUTO 00000KT 40SM 16/10 A3009 RMK AO1 T01610100
ROUNDUP     |KRPX 291455Z AUTO 00000KT 40SM 16/09 A3001 RMK AO1 T01560094
PLAINS      |KS34 291455Z AUTO 00000KT 40SM 12/07 A3001 RMK AO1 T01220067
SCOBEY      |K9S2 291455Z AUTO 34008KT 25SM 14/09 A3002 RMK AO1 T01390094






000
SXUS55 KMSO 291443
OSOMSO
MONTANA AWOS SUMMARY
NATIONAL WEATHER SERVICE MISSOULA MT
843 AM MDT FRI AUG 29 2014

Montana AWOS Reports

LAUREL      |K6S8 291435Z AUTO 00000KT 40SM 16/09 A3009 RMK AO1 T01560094
ROUNDUP     |KRPX 291435Z AUTO 00000KT 40SM 15/09 A3001 RMK AO1 T01500094
MALTA       |KM75 291435Z AUTO 00000KT 40SM 14/11 A3003 RMK AO1 T01440106






000
SXUS55 KMSO 291423
OSOMSO
MONTANA AWOS SUMMARY
NATIONAL WEATHER SERVICE MISSOULA MT
823 AM MDT FRI AUG 29 2014

Montana AWOS Reports

LAUREL      |K6S8 291415Z AUTO 00000KT 40SM 15/09 A3009 RMK AO1 T01500094
ROUNDUP     |KRPX 291415Z AUTO 00000KT 40SM 14/09 A3001 RMK AO1 T01390089
MALTA       |KM75 291415Z AUTO 00000KT 40SM 14/11 A3003 RMK AO1 T01440111






000
SXUS55 KMSO 291414
OSOMSO
MONTANA AWOS SUMMARY
NATIONAL WEATHER SERVICE MISSOULA MT
813 AM MDT FRI AUG 29 2014

Montana AWOS Reports

MALTA       |KM75 291355Z AUTO 00000KT 40SM 14/11 A3003 RMK AO1 T01390106






000
SXUS55 KMSO 291403
OSOMSO
MONTANA AWOS SUMMARY
NATIONAL WEATHER SERVICE MISSOULA MT
803 AM MDT FRI AUG 29 2014

Montana AWOS Reports

SCOBEY      |K9S2 291355Z AUTO 34007KT 40SM 13/09 A3001 RMK AO1 T01330094
PLAINS      |KS34 291355Z AUTO 00000KT 40SM 08/04 A3002 RMK AO1 T00780044
LAUREL      |K6S8 291355Z AUTO 00000KT 40SM 14/09 A3008 RMK AO1 T01390094
ROUNDUP     |KRPX 291355Z AUTO 00000KT 40SM 13/09 A3002 RMK AO1 T01330094






000
SXUS55 KMSO 291353
OSOMSO
MONTANA AWOS SUMMARY
NATIONAL WEATHER SERVICE MISSOULA MT
752 AM MDT FRI AUG 29 2014

Montana AWOS Reports

LAUREL      |K6S8 291335Z AUTO 00000KT 40SM 13/09 A3008 RMK AO1 T01330094
ROUNDUP     |KRPX 291335Z AUTO 00000KT 40SM 13/09 A3002 RMK AO1 T01280094






000
SXUS55 KMSO 291324
OSOMSO
MONTANA AWOS SUMMARY
NATIONAL WEATHER SERVICE MISSOULA MT
723 AM MDT FRI AUG 29 2014

Montana AWOS Reports

LAUREL      |K6S8 291315Z AUTO 00000KT 40SM 12/09 A3009 RMK AO1 T01220089
ROUNDUP     |KRPX 291315Z AUTO 00000KT 40SM 12/09 A3001 RMK AO1 T01220089
MALTA       |KM75 291315Z AUTO 00000KT 40SM 14/11 A3003 RMK AO1 T01390106






000
SXUS55 KMSO 291303
OSOMSO
MONTANA AWOS SUMMARY
NATIONAL WEATHER SERVICE MISSOULA MT
703 AM MDT FRI AUG 29 2014

Montana AWOS Reports

LAUREL      |K6S8 291255Z AUTO 00000KT 40SM 12/08 A3009 RMK AO1 T01170083
ROUNDUP     |KRPX 291255Z AUTO 00000KT 40SM 12/08 A3001 RMK AO1 T01170083
PLAINS      |KS34 291255Z AUTO 00000KT 40SM 07/03 A3001 RMK AO1 T00670028
SCOBEY      |K9S2 291255Z AUTO 34011KT 25SM 13/09 A2999 RMK AO1 T01280094
MALTA       |KM75 291255Z AUTO 00000KT 40SM 14/11 A3003 RMK AO1 T01390106






000
SXUS55 KMSO 291244
OSOMSO
MONTANA AWOS SUMMARY
NATIONAL WEATHER SERVICE MISSOULA MT
643 AM MDT FRI AUG 29 2014

Montana AWOS Reports

LAUREL      |K6S8 291235Z AUTO 00000KT 40SM 12/08 A3009 RMK AO1 T01170083
ROUNDUP     |KRPX 291235Z AUTO 00000KT 40SM 12/08 A3000 RMK AO1 T01220083
MALTA       |KM75 291235Z AUTO 00000KT 40SM 14/11 A3002 RMK AO1 T01390106






000
SXUS55 KMSO 291223
OSOMSO
MONTANA AWOS SUMMARY
NATIONAL WEATHER SERVICE MISSOULA MT
622 AM MDT FRI AUG 29 2014

Montana AWOS Reports

LAUREL      |K6S8 291215Z AUTO 00000KT 40SM 12/08 A3008 RMK AO1 T01220078
ROUNDUP     |KRPX 291215Z AUTO 00000KT 40SM 13/09 A3000 RMK AO1 T01280089
MALTA       |KM75 291215Z AUTO 00000KT 40SM 14/11 A3002 RMK AO1 T01390106






000
SXUS55 KMSO 291213
OSOMSO
MONTANA AWOS SUMMARY
NATIONAL WEATHER SERVICE MISSOULA MT
613 AM MDT FRI AUG 29 2014

Montana AWOS Reports

PLAINS      |KS34 291155Z AUTO 00000KT 40SM 08/03 A3002 RMK AO1 T00780033
MALTA       |KM75 291155Z AUTO 00000KT 40SM 14/11 A3002 RMK AO1 T01390106






000
SXUS55 KMSO 291203
OSOMSO
MONTANA AWOS SUMMARY
NATIONAL WEATHER SERVICE MISSOULA MT
603 AM MDT FRI AUG 29 2014

Montana AWOS Reports

ROUNDUP     |KRPX 291155Z AUTO 00000KT 40SM 12/09 A2999 RMK AO1 T01220089
LAUREL      |K6S8 291155Z AUTO 00000KT 40SM 13/08 A3008 RMK AO1 T01330078
MALTA       |KM75 291155Z AUTO 00000KT 40SM 14/11 A3002 RMK AO1 T01390106
SCOBEY      |K9S2 291155Z AUTO 34004KT 25SM 13/09 A2998 RMK AO1 T01280094






000
SXUS55 KMSO 291153
OSOMSO
MONTANA AWOS SUMMARY
NATIONAL WEATHER SERVICE MISSOULA MT
553 AM MDT FRI AUG 29 2014

Montana AWOS Reports

LAUREL      |K6S8 291135Z AUTO 00000KT 40SM 14/09 A3008 RMK AO1 T01390094
ROUNDUP     |KRPX 291135Z AUTO 00000KT 40SM 12/09 A2999 RMK AO1 T01220089
MALTA       |KM75 291135Z AUTO 00000KT 40SM 14/10 A3001 RMK AO1 T01390100






000
SXUS55 KMSO 291123
OSOMSO
MONTANA AWOS SUMMARY
NATIONAL WEATHER SERVICE MISSOULA MT
523 AM MDT FRI AUG 29 2014

Montana AWOS Reports

LAUREL      |K6S8 291115Z AUTO 33004KT 40SM 14/08 A3008 RMK AO1 T01390083
ROUNDUP     |KRPX 291115Z AUTO 00000KT 40SM 13/09 A2999 RMK AO1 T01330089
MALTA       |KM75 291115Z AUTO 00000KT 40SM 14/11 A3001 RMK AO1 T01390106






000
SXUS55 KMSO 291113
OSOMSO
MONTANA AWOS SUMMARY
NATIONAL WEATHER SERVICE MISSOULA MT
513 AM MDT FRI AUG 29 2014

Montana AWOS Reports

LAUREL      |K6S8 291055Z AUTO 34005KT 40SM 14/09 A3007 RMK AO1 T01440089
SCOBEY      |K9S2 291055Z AUTO 34004KT 25SM 13/09 A2996 RMK AO1 T01280089
PLAINS      |KS34 291055Z AUTO 00000KT 40SM 09/04 A3002 RMK AO1 T00890039
MALTA       |KM75 291055Z AUTO 00000KT 40SM 14/11 A3000 RMK AO1 T01390111






000
SXUS55 KMSO 291103
OSOMSO
MONTANA AWOS SUMMARY
NATIONAL WEATHER SERVICE MISSOULA MT
503 AM MDT FRI AUG 29 2014

Montana AWOS Reports

ROUNDUP     |KRPX 291055Z AUTO 00000KT 40SM 13/08 A2999 RMK AO1 T01330083






000
SXUS55 KMSO 291043
OSOMSO
MONTANA AWOS SUMMARY
NATIONAL WEATHER SERVICE MISSOULA MT
442 AM MDT FRI AUG 29 2014

Montana AWOS Reports

LAUREL      |K6S8 291035Z AUTO 34004KT 40SM 15/10 A3008 RMK AO1 T01500100
ROUNDUP     |KRPX 291035Z AUTO 00000KT 40SM 14/09 A2999 RMK AO1 T01390089






000
SXUS55 KMSO 291033
OSOMSO
MONTANA AWOS SUMMARY
NATIONAL WEATHER SERVICE MISSOULA MT
433 AM MDT FRI AUG 29 2014

Montana AWOS Reports

LAUREL      |K6S8 290955Z AUTO 34009KT 40SM 16/11 A3007 RMK AO1 T01560106
ROUNDUP     |KRPX 290955Z AUTO 00000KT 40SM 14/09 A2999 RMK AO1 T01440094
MALTA       |KM75 290955Z AUTO 32007KT 40SM 14/11 A2998 RMK AO1 T01390111
SCOBEY      |K9S2 290955Z AUTO 33011G15KT 25SM 13/09 A2993 RMK AO1 T01330089
PLAINS      |KS34 290955Z AUTO 00000KT 40SM 09/03 A3002 RMK AO1 T00890033
LAUREL      |K6S8 291015Z AUTO 34005KT 40SM 15/10 A3008 RMK AO1 T01500100
ROUNDUP     |KRPX 291015Z AUTO 00000KT 40SM 14/09 A2999 RMK AO1 T01390089






000
SXUS55 KMSO 291004
OSOMSO
MONTANA AWOS SUMMARY
NATIONAL WEATHER SERVICE MISSOULA MT
403 AM MDT FRI AUG 29 2014

Montana AWOS Reports

LAUREL      |K6S8 290955Z AUTO 34009KT 40SM 16/11 A3007 RMK AO1 T01560106
ROUNDUP     |KRPX 290955Z AUTO 00000KT 40SM 14/09 A2999 RMK AO1 T01440094
MALTA       |KM75 290955Z AUTO 32007KT 40SM 14/11 A2998 RMK AO1 T01390111
SCOBEY      |K9S2 290955Z AUTO 33011G15KT 25SM 13/09 A2993 RMK AO1 T01330089
PLAINS      |KS34 290955Z AUTO 00000KT 40SM 09/03 A3002 RMK AO1 T00890033






000
SXUS55 KMSO 290953
OSOMSO
MONTANA AWOS SUMMARY
NATIONAL WEATHER SERVICE MISSOULA MT
353 AM MDT FRI AUG 29 2014

Montana AWOS Reports

LAUREL      |K6S8 290935Z AUTO 33010G15KT 40SM 16/10 A3007 RMK AO1 T01560100
ROUNDUP     |KRPX 290935Z AUTO 00000KT 40SM 14/09 A2999 RMK AO1 T01390089






000
SXUS55 KMSO 290933
OSOMSO
MONTANA AWOS SUMMARY
NATIONAL WEATHER SERVICE MISSOULA MT
333 AM MDT FRI AUG 29 2014

Montana AWOS Reports

LAUREL      |K6S8 290915Z AUTO 34010G19KT 40SM 16/11 A3007 RMK AO1 T01610106
ROUNDUP     |KRPX 290915Z AUTO 00000KT 40SM 14/09 A2999 RMK AO1 T01440094
MALTA       |KM75 290915Z AUTO 30009G14KT 40SM 14/11 A2997 RMK AO1 T01390111






000
SXUS55 KMSO 290903
OSOMSO
MONTANA AWOS SUMMARY
NATIONAL WEATHER SERVICE MISSOULA MT
303 AM MDT FRI AUG 29 2014

Montana AWOS Reports

LAUREL      |K6S8 290855Z AUTO 33011G15KT 40SM 17/11 A3006 RMK AO1 T01720106
ROUNDUP     |KRPX 290855Z AUTO 00000KT 40SM 15/09 A2999 RMK AO1 T01500094
SCOBEY      |K9S2 290855Z AUTO 32007KT 25SM 13/10 A2994 RMK AO1 T01330100
MALTA       |KM75 290855Z AUTO 29007KT 40SM 14/12 A2997 RMK AO1 T01440117
PLAINS      |KS34 290855Z AUTO 00000KT 40SM 11/04 A3001 RMK AO1 T01060044






000
SXUS55 KMSO 290843
OSOMSO
MONTANA AWOS SUMMARY
NATIONAL WEATHER SERVICE MISSOULA MT
243 AM MDT FRI AUG 29 2014

Montana AWOS Reports

LAUREL      |K6S8 290835Z AUTO 35007KT 40SM 18/11 A3005 RMK AO1 T01830106
ROUNDUP     |KRPX 290835Z AUTO 36004KT 40SM 16/10 A2999 RMK AO1 T01560100
MALTA       |KM75 290835Z AUTO 28007KT 40SM 15/12 A2996 RMK AO1 T01500122






000
SXUS55 KMSO 290823
OSOMSO
MONTANA AWOS SUMMARY
NATIONAL WEATHER SERVICE MISSOULA MT
223 AM MDT FRI AUG 29 2014

Montana AWOS Reports

MALTA       |KM75 290755Z AUTO 27005KT 40SM 16/13 A2996 RMK AO1 T01560128
LAUREL      |K6S8 290815Z AUTO 34004KT 40SM 18/09 A3003 RMK AO1 T01780094
ROUNDUP     |KRPX 290815Z AUTO 00000KT 40SM 16/10 A2999 RMK AO1 T01560100
MALTA       |KM75 290815Z AUTO 27006KT 40SM 15/12 A2996 RMK AO1 T01500117






000
SXUS55 KMSO 290813
OSOMSO
MONTANA AWOS SUMMARY
NATIONAL WEATHER SERVICE MISSOULA MT
213 AM MDT FRI AUG 29 2014

Montana AWOS Reports

PLAINS      |KS34 290755Z AUTO 00000KT 40SM 11/04 A3001 RMK AO1 T01110044






000
SXUS55 KMSO 290803
OSOMSO
MONTANA AWOS SUMMARY
NATIONAL WEATHER SERVICE MISSOULA MT
203 AM MDT FRI AUG 29 2014

Montana AWOS Reports

LAUREL      |K6S8 290755Z AUTO 20008KT 40SM 18/10 A3000 RMK AO1 T01830100
ROUNDUP     |KRPX 290755Z AUTO 34009G19KT 40SM 16/11 A2996 RMK AO1 T01610106
SCOBEY      |K9S2 290755Z AUTO 00000KT 25SM 14/11 A2992 RMK AO1 T01390106






000
SXUS55 KMSO 290743
OSOMSO
MONTANA AWOS SUMMARY
NATIONAL WEATHER SERVICE MISSOULA MT
143 AM MDT FRI AUG 29 2014

Montana AWOS Reports

LAUREL      |K6S8 290715Z AUTO 27008KT 40SM 18/11 A3000 RMK AO1 T01830106
ROUNDUP     |KRPX 290715Z AUTO 32022G31KT 40SM 17/11 A2992 RMK AO1 T01670111
LAUREL      |K6S8 290735Z AUTO 22009G19KT 40SM 19/11 A3000 RMK AO1 T01940106
ROUNDUP     |KRPX 290735Z AUTO 33021G33KT 40SM 16/11 A2993 RMK AO1 T01610106
MALTA       |KM75 290735Z AUTO 29004KT 40SM 16/13 A2996 RMK AO1 T01560128






000
SXUS55 KMSO 290713
OSOMSO
MONTANA AWOS SUMMARY
NATIONAL WEATHER SERVICE MISSOULA MT
113 AM MDT FRI AUG 29 2014

Montana AWOS Reports

PLAINS      |KS34 290655Z AUTO 00000KT 25SM 13/06 A3001 RMK AO1 T01280056
MALTA       |KM75 290655Z AUTO 00000KT 40SM 16/13 A2996 RMK AO1 T01560128






000
SXUS55 KMSO 290703
OSOMSO
MONTANA AWOS SUMMARY
NATIONAL WEATHER SERVICE MISSOULA MT
103 AM MDT FRI AUG 29 2014

Montana AWOS Reports

LAUREL      |K6S8 290655Z AUTO 19007KT 25SM 19/11 A2997 RMK AO1 T01890111
ROUNDUP     |KRPX 290655Z AUTO 33028G32KT 40SM 18/11 A2992 RMK AO1 T01830111
MALTA       |KM75 290655Z AUTO 00000KT 40SM 16/13 A2996 RMK AO1 T01560128
SCOBEY      |K9S2 290655Z AUTO 34004KT 3 1/2SM 14/11 A2992 RMK AO1 T01440106






000
SXUS55 KMSO 290653
OSOMSO
MONTANA AWOS SUMMARY
NATIONAL WEATHER SERVICE MISSOULA MT
1253 AM MDT FRI AUG 29 2014

Montana AWOS Reports

PLAINS      |KS34 290555Z AUTO 00000KT 40SM 14/04 A3001 RMK AO1 T01390044






000
SXUS55 KMSO 290643
OSOMSO
MONTANA AWOS SUMMARY
NATIONAL WEATHER SERVICE MISSOULA MT
1243 AM MDT FRI AUG 29 2014

Montana AWOS Reports

LAUREL      |K6S8 290635Z AUTO 25SM 18/11 A2997 RMK AO1 T01780111
ROUNDUP     |KRPX 290635Z AUTO 30016G25KT 40SM 21/09 A2989 RMK AO1 T02060094






000
SXUS55 KMSO 290633
OSOMSO
MONTANA AWOS SUMMARY
NATIONAL WEATHER SERVICE MISSOULA MT
1232 AM MDT FRI AUG 29 2014

Montana AWOS Reports

SCOBEY      |K9S2 290555Z AUTO 32015G22KT 10SM 18/11 A2992 RMK AO1 T01780111






000
SXUS55 KMSO 290624
OSOMSO
MONTANA AWOS SUMMARY
NATIONAL WEATHER SERVICE MISSOULA MT
1223 AM MDT FRI AUG 29 2014

Montana AWOS Reports

LAUREL      |K6S8 290615Z AUTO 00000KT 40SM 18/12 A2996 RMK AO1 T01830117
LAUREL      |K6S8 290615Z AUTO 00000KT 40SM 18/12 A2996 RMK AO1 T01830117
ROUNDUP     |KRPX 290615Z AUTO 27007KT 40SM 18/11 A2987 RMK AO1 T01830106






000
SXUS55 KMSO 290603
OSOMSO
MONTANA AWOS SUMMARY
NATIONAL WEATHER SERVICE MISSOULA MT
1203 AM MDT FRI AUG 29 2014

Montana AWOS Reports

LAUREL      |K6S8 290555Z AUTO 00000KT 25SM 19/12 A2996 RMK AO1 T01890122
ROUNDUP     |KRPX 290555Z AUTO 26007KT 40SM 18/11 A2985 RMK AO1 T01780111
MALTA       |KM75 290555Z AUTO 02006KT 15SM 16/13 A2993 RMK AO1 T01560128






000
SXUS55 KMSO 290544
OSOMSO
MONTANA AWOS SUMMARY
NATIONAL WEATHER SERVICE MISSOULA MT
1143 PM MDT THU AUG 28 2014

Montana AWOS Reports

LAUREL      |K6S8 290535Z AUTO 24007KT 15SM 19/12 A2996 RMK AO1 T01940117
ROUNDUP     |KRPX 290535Z AUTO 00000KT 40SM 18/11 A2984 RMK AO1 T01830111






000
SXUS55 KMSO 290523
OSOMSO
MONTANA AWOS SUMMARY
NATIONAL WEATHER SERVICE MISSOULA MT
1122 PM MDT THU AUG 28 2014

Montana AWOS Reports

ROUNDUP     |KRPX 290515Z AUTO 00000KT 40SM 19/11 A2983 RMK AO1 T01890111
LAUREL      |K6S8 290515Z AUTO 20005KT 25SM 19/12 A2995 RMK AO1 T01940122
MALTA       |KM75 290515Z AUTO 34021G29KT 5SM 16/12 A2992 RMK AO1 T01560117






000
SXUS55 KMSO 290513
OSOMSO
MONTANA AWOS SUMMARY
NATIONAL WEATHER SERVICE MISSOULA MT
1113 PM MDT THU AUG 28 2014

Montana AWOS Reports

MALTA       |KM75 290155Z AUTO 34005KT 40SM 24/14 A2980 RMK AO1 T02390144
SCOBEY      |K9S2 290455Z AUTO 30004KT 15SM 14/10 A2985 RMK AO1 T01440100
MALTA       |KM75 290255Z AUTO 00000KT 40SM 22/14 A2980 RMK AO1 T02220139






000
SXUS55 KMSO 290503
OSOMSO
MONTANA AWOS SUMMARY
NATIONAL WEATHER SERVICE MISSOULA MT
1103 PM MDT THU AUG 28 2014

Montana AWOS Reports

LAUREL      |K6S8 290455Z AUTO 00000KT 4SM 21/08 A2994 RMK AO1 T02060078
ROUNDUP     |KRPX 290455Z AUTO 19005KT 40SM 22/12 A2983 RMK AO1 T02220117






000
SXUS55 KMSO 290453
OSOMSO
MONTANA AWOS SUMMARY
NATIONAL WEATHER SERVICE MISSOULA MT
1053 PM MDT THU AUG 28 2014

Montana AWOS Reports

MALTA       |KM75 290055Z AUTO 00000KT 40SM 27/13 A2980 RMK AO1 T02720133






000
SXUS55 KMSO 290443
OSOMSO
MONTANA AWOS SUMMARY
NATIONAL WEATHER SERVICE MISSOULA MT
1043 PM MDT THU AUG 28 2014

Montana AWOS Reports

LAUREL      |K6S8 290435Z AUTO 25005KT 40SM 21/09 A2992 RMK AO1 T02110094
ROUNDUP     |KRPX 290435Z AUTO 00000KT 40SM 21/09 A2984 RMK AO1 T02060089
MALTA       |KM75 290435Z AUTO 34026G36KT 7SM 16/13 A2986 RMK AO1 T01610128






000
SXUS55 KMSO 290423
OSOMSO
MONTANA AWOS SUMMARY
NATIONAL WEATHER SERVICE MISSOULA MT
1023 PM MDT THU AUG 28 2014

Montana AWOS Reports

LAUREL      |K6S8 290415Z AUTO 00000KT 40SM 21/08 A2990 RMK AO1 T02110083
ROUNDUP     |KRPX 290415Z AUTO 28004KT 40SM 20/11 A2984 RMK AO1 T02000111
MALTA       |KM75 290415Z AUTO 32028G36KT 40SM 18/13 A2988 RMK AO1 T01780133






000
SXUS55 KMSO 290403
OSOMSO
MONTANA AWOS SUMMARY
NATIONAL WEATHER SERVICE MISSOULA MT
1003 PM MDT THU AUG 28 2014

Montana AWOS Reports

SCOBEY      |K9S2 290255Z AUTO 00000KT 25SM 20/11 A2984 RMK AO1 T02000111
LAUREL      |K6S8 290355Z AUTO 00000KT 40SM 22/08 A2990 RMK AO1 T02220083
ROUNDUP     |KRPX 290355Z AUTO 02005KT 40SM 22/11 A2984 RMK AO1 T02170106






000
SXUS55 KMSO 290353
OSOMSO
MONTANA AWOS SUMMARY
NATIONAL WEATHER SERVICE MISSOULA MT
953 PM MDT THU AUG 28 2014

Montana AWOS Reports

PLAINS      |KS34 290255Z AUTO 00000KT 40SM 24/04 A2998 RMK AO1 T02440039






000
SXUS55 KMSO 290343
OSOMSO
MONTANA AWOS SUMMARY
NATIONAL WEATHER SERVICE MISSOULA MT
943 PM MDT THU AUG 28 2014

Montana AWOS Reports

LAUREL      |K6S8 290335Z AUTO 00000KT 40SM 22/07 A2991 RMK AO1 T02220072
ROUNDUP     |KRPX 290335Z AUTO 00000KT 40SM 22/09 A2984 RMK AO1 T02170094






000
SXUS55 KMSO 290333
OSOMSO
MONTANA AWOS SUMMARY
NATIONAL WEATHER SERVICE MISSOULA MT
933 PM MDT THU AUG 28 2014

Montana AWOS Reports

MALTA       |KM75 290315Z AUTO 00000KT 40SM 22/14 A2980 RMK AO1 T02170144






000
SXUS55 KMSO 290323
OSOMSO
MONTANA AWOS SUMMARY
NATIONAL WEATHER SERVICE MISSOULA MT
923 PM MDT THU AUG 28 2014

Montana AWOS Reports

LAUREL      |K6S8 290315Z AUTO 00000KT 40SM 22/08 A2991 RMK AO1 T02220078
ROUNDUP     |KRPX 290315Z AUTO 00000KT 40SM 23/09 A2983 RMK AO1 T02280094






000
SXUS55 KMSO 290304
OSOMSO
MONTANA AWOS SUMMARY
NATIONAL WEATHER SERVICE MISSOULA MT
903 PM MDT THU AUG 28 2014

Montana AWOS Reports

MALTA       |KM75 290255Z AUTO 00000KT 40SM 22/14 A2980 RMK AO1 T02220139






000
SXUS55 KMSO 290243
OSOMSO
MONTANA AWOS SUMMARY
NATIONAL WEATHER SERVICE MISSOULA MT
843 PM MDT THU AUG 28 2014

Montana AWOS Reports

LAUREL      |K6S8 290235Z AUTO 00000KT 40SM 23/07 A2991 RMK AO1 T02280067
ROUNDUP     |KRPX 290235Z AUTO 00000KT 40SM 24/07 A2982 RMK AO1 T02390067






000
SXUS55 KMSO 290223
OSOMSO
MONTANA AWOS SUMMARY
NATIONAL WEATHER SERVICE MISSOULA MT
823 PM MDT THU AUG 28 2014

Montana AWOS Reports

ROUNDUP     |KRPX 290215Z AUTO 00000KT 40SM 24/07 A2982 RMK AO1 T02440072
LAUREL      |K6S8 290215Z AUTO 00000KT 40SM 24/08 A2990 RMK AO1 T02440083






000
SXUS55 KMSO 290203
OSOMSO
MONTANA AWOS SUMMARY
NATIONAL WEATHER SERVICE MISSOULA MT
803 PM MDT THU AUG 28 2014

Montana AWOS Reports

LAUREL      |K6S8 290155Z AUTO 00000KT 40SM 26/08 A2990 RMK AO1 T02560083
SCOBEY      |K9S2 290155Z AUTO 30005KT 25SM 23/11 A2983 RMK AO1 T02280111
PLAINS      |KS34 290155Z AUTO 00000KT 40SM 26/04 A2997 RMK AO1 T02610039
MALTA       |KM75 282355Z AUTO 27008KT 40SM 29/11 A2981 RMK AO1 T02890111






000
SXUS55 KMSO 290143
OSOMSO
MONTANA AWOS SUMMARY
NATIONAL WEATHER SERVICE MISSOULA MT
743 PM MDT THU AUG 28 2014

Montana AWOS Reports

LAUREL      |K6S8 290135Z AUTO 00000KT 40SM 26/08 A2991 RMK AO1 T02610078
ROUNDUP     |KRPX 290135Z AUTO 00000KT 40SM 27/07 A2982 RMK AO1 T02670072






000
SXUS55 KMSO 290133
OSOMSO
MONTANA AWOS SUMMARY
NATIONAL WEATHER SERVICE MISSOULA MT
732 PM MDT THU AUG 28 2014

Montana AWOS Reports

MALTA       |KM75 290115Z AUTO 00000KT 40SM 26/13 A2980 RMK AO1 T02610133






000
SXUS55 KMSO 290123
OSOMSO
MONTANA AWOS SUMMARY
NATIONAL WEATHER SERVICE MISSOULA MT
722 PM MDT THU AUG 28 2014

Montana AWOS Reports

LAUREL      |K6S8 290115Z AUTO 00000KT 25SM 27/09 A2991 RMK AO1 T02720089
ROUNDUP     |KRPX 290115Z AUTO 00000KT 40SM 28/07 A2983 RMK AO1 T02830072






000
SXUS55 KMSO 290104
OSOMSO
MONTANA AWOS SUMMARY
NATIONAL WEATHER SERVICE MISSOULA MT
703 PM MDT THU AUG 28 2014

Montana AWOS Reports

LAUREL      |K6S8 290055Z AUTO 00000KT 40SM 29/08 A2990 RMK AO1 T02940083
ROUNDUP     |KRPX 290055Z AUTO 00000KT 40SM 29/06 A2983 RMK AO1 T02890061






000
SXUS55 KMSO 290043
OSOMSO
MONTANA AWOS SUMMARY
NATIONAL WEATHER SERVICE MISSOULA MT
643 PM MDT THU AUG 28 2014

Montana AWOS Reports

ROUNDUP     |KRPX 290035Z AUTO 00000KT 40SM 30/06 A2983 RMK AO1 T03000056
LAUREL      |K6S8 290035Z AUTO 00000KT 40SM 30/07 A2991 RMK AO1 T03000072
MALTA       |KM75 290035Z AUTO 00000KT 40SM 28/12 A2980 RMK AO1 T02830117






000
SXUS55 KMSO 290033
OSOMSO
MONTANA AWOS SUMMARY
NATIONAL WEATHER SERVICE MISSOULA MT
633 PM MDT THU AUG 28 2014

Montana AWOS Reports

MALTA       |KM75 282255Z AUTO 28014G19KT 40SM 29/09 A2981 RMK AO1 T02890094






000
SXUS55 KMSO 290023
OSOMSO
MONTANA AWOS SUMMARY
NATIONAL WEATHER SERVICE MISSOULA MT
623 PM MDT THU AUG 28 2014

Montana AWOS Reports

ROUNDUP     |KRPX 290015Z AUTO 00000KT 40SM 29/05 A2983 RMK AO1 T02940050
LAUREL      |K6S8 290015Z AUTO 00000KT 40SM 30/06 A2991 RMK AO1 T03000061
MALTA       |KM75 290015Z AUTO 28007KT 40SM 28/11 A2981 RMK AO1 T02830106






000
SXUS55 KMSO 290014
OSOMSO
MONTANA AWOS SUMMARY
NATIONAL WEATHER SERVICE MISSOULA MT
613 PM MDT THU AUG 28 2014

Montana AWOS Reports

PLAINS      |KS34 282255Z AUTO 00000KT 40SM 29/06 A2996 RMK AO1 T02890056






000
SXUS55 KMSO 290004
OSOMSO
MONTANA AWOS SUMMARY
NATIONAL WEATHER SERVICE MISSOULA MT
603 PM MDT THU AUG 28 2014

Montana AWOS Reports

LAUREL      |K6S8 282355Z AUTO 09004KT 40SM 31/07 A2991 RMK AO1 T03110067






000
SXUS55 KMSO 282343
OSOMSO
MONTANA AWOS SUMMARY
NATIONAL WEATHER SERVICE MISSOULA MT
543 PM MDT THU AUG 28 2014

Montana AWOS Reports

MALTA       |KM75 282335Z AUTO 29008KT 40SM 29/12 A2981 RMK AO1 T02890117






000
SXUS55 KMSO 282323
OSOMSO
MONTANA AWOS SUMMARY
NATIONAL WEATHER SERVICE MISSOULA MT
523 PM MDT THU AUG 28 2014

Montana AWOS Reports

LAUREL      |K6S8 282315Z AUTO 00000KT 40SM 32/07 A2992 RMK AO1 T03170067
ROUNDUP     |KRPX 282315Z AUTO 40SM 31/05 A2984 RMK AO1 T03060050






000
SXUS55 KMSO 282303
OSOMSO
MONTANA AWOS SUMMARY
NATIONAL WEATHER SERVICE MISSOULA MT
502 PM MDT THU AUG 28 2014

Montana AWOS Reports

LAUREL      |K6S8 282255Z AUTO 35006KT 40SM 31/06 A2992 RMK AO1 T03110061
ROUNDUP     |KRPX 282255Z AUTO 00000KT 40SM 31/06 A2984 RMK AO1 T03060056






000
SXUS55 KMSO 282243
OSOMSO
MONTANA AWOS SUMMARY
NATIONAL WEATHER SERVICE MISSOULA MT
443 PM MDT THU AUG 28 2014

Montana AWOS Reports

LAUREL      |K6S8 282235Z AUTO 27006KT 40SM 31/06 A2993 RMK AO1 T03110061
ROUNDUP     |KRPX 282235Z AUTO 32004KT 40SM 29/06 A2985 RMK AO1 T02940056






000
SXUS55 KMSO 282233
OSOMSO
MONTANA AWOS SUMMARY
NATIONAL WEATHER SERVICE MISSOULA MT
433 PM MDT THU AUG 28 2014

Montana AWOS Reports

MALTA       |KM75 282155Z AUTO 27011G20KT 40SM 29/09 A2982 RMK AO1 T02890089






000
SXUS55 KMSO 282223
OSOMSO
MONTANA AWOS SUMMARY
NATIONAL WEATHER SERVICE MISSOULA MT
423 PM MDT THU AUG 28 2014

Montana AWOS Reports

LAUREL      |K6S8 282215Z AUTO 33006KT 40SM 31/07 A2994 RMK AO1 T03110067
MALTA       |KM75 282215Z AUTO 26015G19KT 40SM 29/11 A2982 RMK AO1 T02940106






000
SXUS55 KMSO 282214
OSOMSO
MONTANA AWOS SUMMARY
NATIONAL WEATHER SERVICE MISSOULA MT
413 PM MDT THU AUG 28 2014

Montana AWOS Reports

PLAINS      |KS34 282155Z AUTO 00000KT 40SM 30/07 A2996 RMK AO1 T03000072






000
SXUS55 KMSO 282204
OSOMSO
MONTANA AWOS SUMMARY
NATIONAL WEATHER SERVICE MISSOULA MT
403 PM MDT THU AUG 28 2014

Montana AWOS Reports

LAUREL      |K6S8 282155Z AUTO 29008KT 40SM 31/06 A2994 RMK AO1 T03110061






000
SXUS55 KMSO 282143
OSOMSO
MONTANA AWOS SUMMARY
NATIONAL WEATHER SERVICE MISSOULA MT
343 PM MDT THU AUG 28 2014

Montana AWOS Reports

MALTA       |KM75 282135Z AUTO 28009G15KT 40SM 29/11 A2982 RMK AO1 T02890111
LAUREL      |K6S8 282135Z AUTO 26004KT 25SM 32/07 A2995 RMK AO1 T03170067






000
SXUS55 KMSO 282123
OSOMSO
MONTANA AWOS SUMMARY
NATIONAL WEATHER SERVICE MISSOULA MT
323 PM MDT THU AUG 28 2014

Montana AWOS Reports

LAUREL      |K6S8 282115Z AUTO 27004KT 40SM 30/07 A2996 RMK AO1 T03000072






000
SXUS55 KMSO 282114
OSOMSO
MONTANA AWOS SUMMARY
NATIONAL WEATHER SERVICE MISSOULA MT
313 PM MDT THU AUG 28 2014

Montana AWOS Reports

SCOBEY      |K9S2 282055Z AUTO 25020G28KT 31/08 A2982 RMK AO1 T03110083
PLAINS      |KS34 282055Z AUTO 00000KT 40SM 30/07 A2996 RMK AO1 T03000067






000
SXUS55 KMSO 282103
OSOMSO
MONTANA AWOS SUMMARY
NATIONAL WEATHER SERVICE MISSOULA MT
303 PM MDT THU AUG 28 2014

Montana AWOS Reports

LAUREL      |K6S8 282055Z AUTO 29009KT 40SM 31/08 A2996 RMK AO1 T03060078
ROUNDUP     |KRPX 282055Z AUTO 34006KT 40SM 30/07 A2987 RMK AO1 T03000072
MALTA       |KM75 282055Z AUTO 28009G14KT 40SM 29/12 A2983 RMK AO1 T02890117






000
SXUS55 KMSO 282043
OSOMSO
MONTANA AWOS SUMMARY
NATIONAL WEATHER SERVICE MISSOULA MT
243 PM MDT THU AUG 28 2014

Montana AWOS Reports

LAUREL      |K6S8 282035Z AUTO 40SM 31/06 A2997 RMK AO1 T03060056
ROUNDUP     |KRPX 282035Z AUTO 28007KT 40SM 29/06 A2987 RMK AO1 T02940056






000
SXUS55 KMSO 282024
OSOMSO
MONTANA AWOS SUMMARY
NATIONAL WEATHER SERVICE MISSOULA MT
223 PM MDT THU AUG 28 2014

Montana AWOS Reports

ROUNDUP     |KRPX 282015Z AUTO 31006KT 40SM 30/07 A2988 RMK AO1 T03000072
LAUREL      |K6S8 282015Z AUTO 00000KT 15SM 30/06 A2997 RMK AO1 T03000061
MALTA       |KM75 282015Z AUTO 26014G18KT 40SM 28/11 A2984 RMK AO1 T02830111






000
SXUS55 KMSO 282004
OSOMSO
MONTANA AWOS SUMMARY
NATIONAL WEATHER SERVICE MISSOULA MT
203 PM MDT THU AUG 28 2014

Montana AWOS Reports

SCOBEY      |K9S2 281955Z AUTO 25016G20KT 31/08 A2983 RMK AO1 T03110083
PLAINS      |KS34 281955Z AUTO 00000KT 40SM 30/07 A2997 RMK AO1 T03000072






000
SXUS55 KMSO 281944
OSOMSO
MONTANA AWOS SUMMARY
NATIONAL WEATHER SERVICE MISSOULA MT
143 PM MDT THU AUG 28 2014

Montana AWOS Reports

MALTA       |KM75 281935Z AUTO 25012KT 40SM 28/13 A2985 RMK AO1 T02780133






000
SXUS55 KMSO 281923
OSOMSO
MONTANA AWOS SUMMARY
NATIONAL WEATHER SERVICE MISSOULA MT
123 PM MDT THU AUG 28 2014

Montana AWOS Reports

LAUREL      |K6S8 281915Z AUTO 29011G17KT 40SM 30/06 A2999 RMK AO1 T03000056
ROUNDUP     |KRPX 281915Z AUTO 29004KT 40SM 29/07 A2990 RMK AO1 T02890072






000
SXUS55 KMSO 281913
OSOMSO
MONTANA AWOS SUMMARY
NATIONAL WEATHER SERVICE MISSOULA MT
113 PM MDT THU AUG 28 2014

Montana AWOS Reports

PLAINS      |KS34 281855Z AUTO 00000KT 25SM 29/07 A2999 RMK AO1 T02890067






000
SXUS55 KMSO 281903
OSOMSO
MONTANA AWOS SUMMARY
NATIONAL WEATHER SERVICE MISSOULA MT
103 PM MDT THU AUG 28 2014

Montana AWOS Reports

LAUREL      |K6S8 281855Z AUTO 28012KT 25SM 30/06 A2999 RMK AO1 T03000061
SCOBEY      |K9S2 281855Z AUTO 25015G22KT 31/09 A2984 RMK AO1 T03110089
MALTA       |KM75 281855Z AUTO 25014G19KT 40SM 28/12 A2985 RMK AO1 T02780117






000
SXUS55 KMSO 281844
OSOMSO
MONTANA AWOS SUMMARY
NATIONAL WEATHER SERVICE MISSOULA MT
1243 PM MDT THU AUG 28 2014

Montana AWOS Reports

LAUREL      |K6S8 281835Z AUTO 00000KT 40SM 29/08 A3000 RMK AO1 T02890083
MALTA       |KM75 281835Z AUTO 26006KT 40SM 27/13 A2986 RMK AO1 T02720133






000
SXUS55 KMSO 281823
OSOMSO
MONTANA AWOS SUMMARY
NATIONAL WEATHER SERVICE MISSOULA MT
1223 PM MDT THU AUG 28 2014

Montana AWOS Reports

LAUREL      |K6S8 281815Z AUTO 19007KT 25SM 28/08 A3001 RMK AO1 T02780078
MALTA       |KM75 281815Z AUTO 26013KT 40SM 27/11 A2986 RMK AO1 T02670111






000
SXUS55 KMSO 281813
OSOMSO
MONTANA AWOS SUMMARY
NATIONAL WEATHER SERVICE MISSOULA MT
1213 PM MDT THU AUG 28 2014

Montana AWOS Reports

MALTA       |KM75 281755Z AUTO 24013KT 40SM 26/11 A2986 RMK AO1 T02610111
PLAINS      |KS34 281755Z AUTO 00000KT 40SM 28/07 A3000 RMK AO1 T02780072






000
SXUS55 KMSO 281803
OSOMSO
MONTANA AWOS SUMMARY
NATIONAL WEATHER SERVICE MISSOULA MT
1202 PM MDT THU AUG 28 2014

Montana AWOS Reports

LAUREL      |K6S8 281755Z AUTO 19008KT 40SM 27/09 A3002 RMK AO1 T02720089
ROUNDUP     |KRPX 281755Z AUTO 30004KT 40SM 28/06 A2991 RMK AO1 T02780061
SCOBEY      |K9S2 281755Z AUTO 19006KT 29/12 A2985 RMK AO1 T02940117






000
SXUS55 KMSO 281743
OSOMSO
MONTANA AWOS SUMMARY
NATIONAL WEATHER SERVICE MISSOULA MT
1143 AM MDT THU AUG 28 2014

Montana AWOS Reports

LAUREL      |K6S8 281735Z AUTO 20009G13KT 40SM 26/08 A3002 RMK AO1 T02610083






000
SXUS55 KMSO 281724
OSOMSO
MONTANA AWOS SUMMARY
NATIONAL WEATHER SERVICE MISSOULA MT
1123 AM MDT THU AUG 28 2014

Montana AWOS Reports

ROUNDUP     |KRPX 281715Z AUTO 23011G15KT 40SM 27/08 A2992 RMK AO1 T02720083
LAUREL      |K6S8 281715Z AUTO 20009G13KT 40SM 26/08 A3003 RMK AO1 T02560078
MALTA       |KM75 281715Z AUTO 23012G16KT 40SM 26/11 A2987 RMK AO1 T02560111






000
SXUS55 KMSO 281713
OSOMSO
MONTANA AWOS SUMMARY
NATIONAL WEATHER SERVICE MISSOULA MT
1112 AM MDT THU AUG 28 2014

Montana AWOS Reports

MALTA       |KM75 281655Z AUTO 21009G13KT 40SM 25/12 A2987 RMK AO1 T02500117
PLAINS      |KS34 281655Z AUTO 00000KT 40SM 22/09 A3002 RMK AO1 T02220089






000
SXUS55 KMSO 281703
OSOMSO
MONTANA AWOS SUMMARY
NATIONAL WEATHER SERVICE MISSOULA MT
1103 AM MDT THU AUG 28 2014

Montana AWOS Reports

LAUREL      |K6S8 281655Z AUTO 22009G14KT 40SM 25/08 A3003 RMK AO1 T02500078
ROUNDUP     |KRPX 281655Z AUTO 00000KT 40SM 26/10 A2992 RMK AO1 T02560100
SCOBEY      |K9S2 281655Z AUTO 00000KT 27/11 A2987 RMK AO1 T02670106






000
SXUS55 KMSO 281643
OSOMSO
MONTANA AWOS SUMMARY
NATIONAL WEATHER SERVICE MISSOULA MT
1043 AM MDT THU AUG 28 2014

Montana AWOS Reports

LAUREL      |K6S8 281635Z AUTO 21009G15KT 40SM 24/09 A3004 RMK AO1 T02440089
ROUNDUP     |KRPX 281635Z AUTO 19008KT 40SM 25/10 A2993 RMK AO1 T02500100






000
SXUS55 KMSO 281623
OSOMSO
MONTANA AWOS SUMMARY
NATIONAL WEATHER SERVICE MISSOULA MT
1023 AM MDT THU AUG 28 2014

Montana AWOS Reports

LAUREL      |K6S8 281615Z AUTO 21010G14KT 40SM 23/09 A3004 RMK AO1 T02330089
ROUNDUP     |KRPX 281615Z AUTO 00000KT 40SM 23/11 A2993 RMK AO1 T02280106






000
SXUS55 KMSO 281603
OSOMSO
MONTANA AWOS SUMMARY
NATIONAL WEATHER SERVICE MISSOULA MT
1003 AM MDT THU AUG 28 2014

Montana AWOS Reports

SCOBEY      |K9S2 281555Z AUTO 22008KT 24/10 A2987 RMK AO1 T02440100
PLAINS      |KS34 281555Z AUTO 00000KT 40SM 18/08 A3003 RMK AO1 T01780083
MALTA       |KM75 281555Z AUTO 21007KT 40SM 22/13 A2987 RMK AO1 T02170128






000
SXUS55 KMSO 281553
OSOMSO
MONTANA AWOS SUMMARY
NATIONAL WEATHER SERVICE MISSOULA MT
953 AM MDT THU AUG 28 2014

Montana AWOS Reports

MALTA       |KM75 281535Z AUTO 00000KT 40SM 20/13 A2987 RMK AO1 T02000128
ROUNDUP     |KRPX 281535Z AUTO 19010KT 40SM 21/10 A2993 RMK AO1 T02060100






000
SXUS55 KMSO 281543
OSOMSO
MONTANA AWOS SUMMARY
NATIONAL WEATHER SERVICE MISSOULA MT
943 AM MDT THU AUG 28 2014

Montana AWOS Reports

LAUREL      |K6S8 281535Z AUTO 20010G14KT 40SM 22/09 A3003 RMK AO1 T02220089






000
SXUS55 KMSO 281523
OSOMSO
MONTANA AWOS SUMMARY
NATIONAL WEATHER SERVICE MISSOULA MT
923 AM MDT THU AUG 28 2014

Montana AWOS Reports

LAUREL      |K6S8 281515Z AUTO 20009G14KT 40SM 21/07 A3004 RMK AO1 T02110072
ROUNDUP     |KRPX 281515Z AUTO 21008KT 40SM 19/11 A2993 RMK AO1 T01940106
MALTA       |KM75 281515Z AUTO 21004KT 40SM 19/13 A2988 RMK AO1 T01940128






000
SXUS55 KMSO 281503
OSOMSO
MONTANA AWOS SUMMARY
NATIONAL WEATHER SERVICE MISSOULA MT
903 AM MDT THU AUG 28 2014

Montana AWOS Reports

LAUREL      |K6S8 281455Z AUTO 20009KT 40SM 19/08 A3004 RMK AO1 T01940083
SCOBEY      |K9S2 281455Z AUTO 00000KT 21/09 A2988 RMK AO1 T02060094
PLAINS      |KS34 281455Z AUTO 00000KT 40SM 14/08 A3003 RMK AO1 T01390078
MALTA       |KM75 281455Z AUTO 21006KT 40SM 18/12 A2988 RMK AO1 T01830122






000
SXUS55 KMSO 281443
OSOMSO
MONTANA AWOS SUMMARY
NATIONAL WEATHER SERVICE MISSOULA MT
843 AM MDT THU AUG 28 2014

Montana AWOS Reports

LAUREL      |K6S8 281435Z AUTO 20008KT 40SM 17/08 A3004 RMK AO1 T01720083
MALTA       |KM75 281435Z AUTO 21005KT 40SM 17/12 A2988 RMK AO1 T01720122






000
SXUS55 KMSO 281433
OSOMSO
MONTANA AWOS SUMMARY
NATIONAL WEATHER SERVICE MISSOULA MT
833 AM MDT THU AUG 28 2014

Montana AWOS Reports

MALTA       |KM75 281355Z AUTO 00000KT 40SM 16/12 A2988 RMK AO1 T01560117






000
SXUS55 KMSO 281423
OSOMSO
MONTANA AWOS SUMMARY
NATIONAL WEATHER SERVICE MISSOULA MT
823 AM MDT THU AUG 28 2014

Montana AWOS Reports

ROUNDUP     |KRPX 281415Z AUTO 21009G14KT 40SM 16/08 A2994 RMK AO1 T01560083
LAUREL      |K6S8 281415Z AUTO 21005KT 40SM 17/08 A3004 RMK AO1 T01670083
MALTA       |KM75 281415Z AUTO 00000KT 40SM 16/12 A2988 RMK AO1 T01610117






000
SXUS55 KMSO 281413
OSOMSO
MONTANA AWOS SUMMARY
NATIONAL WEATHER SERVICE MISSOULA MT
813 AM MDT THU AUG 28 2014

Montana AWOS Reports

SCOBEY      |K9S2 281355Z AUTO 00000KT 16/08 A2988 RMK AO1 T01560078
PLAINS      |KS34 281355Z AUTO 00000KT 40SM 10/07 A3002 RMK AO1 T01000067






000
SXUS55 KMSO 281403
OSOMSO
MONTANA AWOS SUMMARY
NATIONAL WEATHER SERVICE MISSOULA MT
803 AM MDT THU AUG 28 2014

Montana AWOS Reports

LAUREL      |K6S8 281355Z AUTO 21007KT 40SM 16/08 A3004 RMK AO1 T01560078
ROUNDUP     |KRPX 281355Z AUTO 20009G15KT 40SM 14/08 A2994 RMK AO1 T01440083






000
SXUS55 KMSO 281343
OSOMSO
MONTANA AWOS SUMMARY
NATIONAL WEATHER SERVICE MISSOULA MT
742 AM MDT THU AUG 28 2014

Montana AWOS Reports

LAUREL      |K6S8 281335Z AUTO 21004KT 40SM 13/07 A3004 RMK AO1 T01330072
ROUNDUP     |KRPX 281335Z AUTO 21008KT 40SM 14/08 A2994 RMK AO1 T01390078
MALTA       |KM75 281335Z AUTO 21005KT 40SM 15/12 A2988 RMK AO1 T01500122






000
SXUS55 KMSO 281323
OSOMSO
MONTANA AWOS SUMMARY
NATIONAL WEATHER SERVICE MISSOULA MT
722 AM MDT THU AUG 28 2014

Montana AWOS Reports

MALTA       |KM75 281155Z AUTO 00000KT 40SM 13/11 A2987 RMK AO1 T01330111
LAUREL      |K6S8 281315Z AUTO 22005KT 40SM 13/07 A3004 RMK AO1 T01280072
ROUNDUP     |KRPX 281315Z AUTO 21006KT 40SM 14/08 A2994 RMK AO1 T01390083






000
SXUS55 KMSO 281303
OSOMSO
MONTANA AWOS SUMMARY
NATIONAL WEATHER SERVICE MISSOULA MT
703 AM MDT THU AUG 28 2014

Montana AWOS Reports

MALTA       |KM75 281255Z AUTO 00000KT 40SM 13/11 A2987 RMK AO1 T01330111
PLAINS      |KS34 281255Z AUTO 00000KT 25SM 09/05 A3001 RMK AO1 T00890050






000
SXUS55 KMSO 281253
OSOMSO
MONTANA AWOS SUMMARY
NATIONAL WEATHER SERVICE MISSOULA MT
653 AM MDT THU AUG 28 2014

Montana AWOS Reports

MALTA       |KM75 281235Z AUTO 00000KT 40SM 13/11 A2987 RMK AO1 T01330111






000
SXUS55 KMSO 281243
OSOMSO
MONTANA AWOS SUMMARY
NATIONAL WEATHER SERVICE MISSOULA MT
642 AM MDT THU AUG 28 2014

Montana AWOS Reports

LAUREL      |K6S8 281235Z AUTO 00000KT 40SM 11/06 A3004 RMK AO1 T01060061
ROUNDUP     |KRPX 281235Z AUTO 20008KT 40SM 13/08 A2994 RMK AO1 T01330078






000
SXUS55 KMSO 281223
OSOMSO
MONTANA AWOS SUMMARY
NATIONAL WEATHER SERVICE MISSOULA MT
623 AM MDT THU AUG 28 2014

Montana AWOS Reports

LAUREL      |K6S8 281215Z AUTO 00000KT 40SM 11/07 A3004 RMK AO1 T01110067
ROUNDUP     |KRPX 281215Z AUTO 20006KT 40SM 13/08 A2994 RMK AO1 T01330078
MALTA       |KM75 281215Z AUTO 00000KT 40SM 13/11 A2987 RMK AO1 T01330106






000
SXUS55 KMSO 281203
OSOMSO
MONTANA AWOS SUMMARY
NATIONAL WEATHER SERVICE MISSOULA MT
603 AM MDT THU AUG 28 2014

Montana AWOS Reports

LAUREL      |K6S8 281155Z AUTO 00000KT 25SM 12/07 A3004 RMK AO1 T01170067
PLAINS      |KS34 281155Z AUTO 00000KT 40SM 09/05 A3001 RMK AO1 T00890050
SCOBEY      |K9S2 281155Z AUTO 00000KT 12/06 A2989 RMK AO1 T01170056






000
SXUS55 KMSO 281143
OSOMSO
MONTANA AWOS SUMMARY
NATIONAL WEATHER SERVICE MISSOULA MT
543 AM MDT THU AUG 28 2014

Montana AWOS Reports

MALTA       |KM75 281135Z AUTO 00000KT 40SM 14/12 A2987 RMK AO1 T01390117






000
SXUS55 KMSO 281123
OSOMSO
MONTANA AWOS SUMMARY
NATIONAL WEATHER SERVICE MISSOULA MT
523 AM MDT THU AUG 28 2014

Montana AWOS Reports

ROUNDUP     |KRPX 281115Z AUTO 20012KT 40SM 13/08 A2994 RMK AO1 T01330083






000
SXUS55 KMSO 281113
OSOMSO
MONTANA AWOS SUMMARY
NATIONAL WEATHER SERVICE MISSOULA MT
512 AM MDT THU AUG 28 2014

Montana AWOS Reports

SCOBEY      |K9S2 281055Z AUTO 00000KT 13/07 A2990 RMK AO1 T01330072
PLAINS      |KS34 281055Z AUTO 00000KT 40SM 10/06 A3001 RMK AO1 T01000056






000
SXUS55 KMSO 281103
OSOMSO
MONTANA AWOS SUMMARY
NATIONAL WEATHER SERVICE MISSOULA MT
503 AM MDT THU AUG 28 2014

Montana AWOS Reports

LAUREL      |K6S8 281055Z AUTO 00000KT 40SM 13/06 A3003 RMK AO1 T01330061
ROUNDUP     |KRPX 281055Z AUTO 19011G15KT 40SM 13/08 A2994 RMK AO1 T01330083
MALTA       |KM75 281055Z AUTO 00000KT 40SM 14/12 A2987 RMK AO1 T01390117






000
SXUS55 KMSO 281044
OSOMSO
MONTANA AWOS SUMMARY
NATIONAL WEATHER SERVICE MISSOULA MT
443 AM MDT THU AUG 28 2014

Montana AWOS Reports

LAUREL      |K6S8 281035Z AUTO 00000KT 40SM 12/07 A3003 RMK AO1 T01220072
ROUNDUP     |KRPX 281035Z AUTO 20010KT 40SM 13/08 A2994 RMK AO1 T01330083
MALTA       |KM75 281035Z AUTO 00000KT 40SM 14/12 A2987 RMK AO1 T01440122






000
SXUS55 KMSO 281024
OSOMSO
MONTANA AWOS SUMMARY
NATIONAL WEATHER SERVICE MISSOULA MT
423 AM MDT THU AUG 28 2014

Montana AWOS Reports

LAUREL      |K6S8 281015Z AUTO 00000KT 40SM 12/07 A3003 RMK AO1 T01220072
ROUNDUP     |KRPX 281015Z AUTO 20007KT 40SM 14/09 A2994 RMK AO1 T01390089
MALTA       |KM75 281015Z AUTO 00000KT 40SM 14/12 A2986 RMK AO1 T01440117






000
SXUS55 KMSO 281013
OSOMSO
MONTANA AWOS SUMMARY
NATIONAL WEATHER SERVICE MISSOULA MT
412 AM MDT THU AUG 28 2014

Montana AWOS Reports

MALTA       |KM75 280955Z AUTO 00000KT 40SM 15/12 A2986 RMK AO1 T01500122






000
SXUS55 KMSO 281003
OSOMSO
MONTANA AWOS SUMMARY
NATIONAL WEATHER SERVICE MISSOULA MT
403 AM MDT THU AUG 28 2014

Montana AWOS Reports

LAUREL      |K6S8 280955Z AUTO 00000KT 40SM 13/07 A3003 RMK AO1 T01330067
ROUNDUP     |KRPX 280955Z AUTO 21006KT 25SM 14/08 A2994 RMK AO1 T01390083






000
SXUS55 KMSO 280953
OSOMSO
MONTANA AWOS SUMMARY
NATIONAL WEATHER SERVICE MISSOULA MT
353 AM MDT THU AUG 28 2014

Montana AWOS Reports

MALTA       |KM75 280935Z AUTO 00000KT 40SM 15/12 A2986 RMK AO1 T01500117






000
SXUS55 KMSO 280943
OSOMSO
MONTANA AWOS SUMMARY
NATIONAL WEATHER SERVICE MISSOULA MT
342 AM MDT THU AUG 28 2014

Montana AWOS Reports

LAUREL      |K6S8 280935Z AUTO 23005KT 25SM 14/07 A3003 RMK AO1 T01390067
ROUNDUP     |KRPX 280935Z AUTO 21006KT 25SM 14/09 A2994 RMK AO1 T01390089






000
SXUS55 KMSO 280923
OSOMSO
MONTANA AWOS SUMMARY
NATIONAL WEATHER SERVICE MISSOULA MT
323 AM MDT THU AUG 28 2014

Montana AWOS Reports

LAUREL      |K6S8 280915Z AUTO 00000KT 40SM 13/07 A3003 RMK AO1 T01330067
ROUNDUP     |KRPX 280915Z AUTO 21008KT 40SM 14/09 A2994 RMK AO1 T01390094
MALTA       |KM75 280915Z AUTO 00000KT 40SM 15/12 A2986 RMK AO1 T01500117






000
SXUS55 KMSO 280913
OSOMSO
MONTANA AWOS SUMMARY
NATIONAL WEATHER SERVICE MISSOULA MT
312 AM MDT THU AUG 28 2014

Montana AWOS Reports

PLAINS      |KS34 280855Z AUTO 00000KT 40SM 12/06 A3001 RMK AO1 T01170061






000
SXUS55 KMSO 280904
OSOMSO
MONTANA AWOS SUMMARY
NATIONAL WEATHER SERVICE MISSOULA MT
303 AM MDT THU AUG 28 2014

Montana AWOS Reports

LAUREL      |K6S8 280855Z AUTO 00000KT 40SM 13/07 A3003 RMK AO1 T01330067
ROUNDUP     |KRPX 280855Z AUTO 21006KT 40SM 13/09 A2994 RMK AO1 T01330094






000
SXUS55 KMSO 280853
OSOMSO
MONTANA AWOS SUMMARY
NATIONAL WEATHER SERVICE MISSOULA MT
253 AM MDT THU AUG 28 2014

Montana AWOS Reports

MALTA       |KM75 280555Z AUTO 00000KT 40SM 18/14 A2987 RMK AO1 T01830144






000
SXUS55 KMSO 280843
OSOMSO
MONTANA AWOS SUMMARY
NATIONAL WEATHER SERVICE MISSOULA MT
243 AM MDT THU AUG 28 2014

Montana AWOS Reports

ROUNDUP     |KRPX 280835Z AUTO 00000KT 40SM 14/09 A2993 RMK AO1 T01390094






    US Dept of Commerce
    National Oceanic and Atmospheric Administration
    National Weather Service
    1325 East West Highway
    Silver Spring, MD 20910
    Page Author: NWS Internet Services Team
Disclaimer
Information Quality
Credits
Glossary
Privacy Policy
Freedom of Information Act (FOIA)
About Us
Career Opportunities